Wetterdaten: Sonntag, 25.09.2022
Datum Zeit Temp. Aussen Temp. o. S. Temp +5cm Feuchte Auss Luftdruck Regen Sonnenschein Regendauer Solar Windben Empfang
25.09.2022 00:00 13,4 C 12,8 C 9,4 C 96 % 1014,5 hPa 0,0 l/m 0 min 0 min 0 W/m 3,2 km/h (1 Bft) 100,00 %
25.09.2022 00:02 13,4 C 12,8 C 9,4 C 96 % 1014,5 hPa 0,0 l/m 0 min 0 min 0 W/m 3,2 km/h (1 Bft) 97,50 %
25.09.2022 00:04 13,4 C 12,8 C 9,4 C 96 % 1014,5 hPa 0,0 l/m 0 min 0 min 0 W/m 6,4 km/h (2 Bft) 100,00 %
25.09.2022 00:08 13,4 C 12,8 C 9,4 C 96 % 1014,4 hPa 0,0 l/m 0 min 0 min 0 W/m 3,2 km/h (1 Bft) 99,01 %
25.09.2022 00:10 13,4 C 12,8 C 9,4 C 96 % 1014,4 hPa 0,0 l/m 0 min 0 min 0 W/m 6,4 km/h (2 Bft) 68,09 %
25.09.2022 00:12 13,4 C 12,8 C 9,4 C 96 % 1014,5 hPa 0,0 l/m 0 min 0 min 0 W/m 3,2 km/h (1 Bft) 89,36 %
25.09.2022 00:14 13,4 C 12,8 C 9,4 C 96 % 1014,5 hPa 0,0 l/m 0 min 0 min 0 W/m 6,4 km/h (2 Bft) 100,00 %
25.09.2022 00:16 13,4 C 12,8 C 9,4 C 96 % 1014,5 hPa 0,0 l/m 0 min 0 min 0 W/m 6,4 km/h (2 Bft) 97,87 %
25.09.2022 00:18 13,4 C 12,8 C 9,4 C 96 % 1014,5 hPa 0,0 l/m 0 min 0 min 0 W/m 12,9 km/h (3 Bft) 100,00 %
25.09.2022 00:20 13,3 C 12,8 C 9,4 C 96 % 1014,5 hPa 0,0 l/m 0 min 0 min 0 W/m 6,4 km/h (2 Bft) 100,00 %
25.09.2022 00:22 13,3 C 12,8 C 9,4 C 96 % 1014,5 hPa 0,0 l/m 0 min 0 min 0 W/m 3,2 km/h (1 Bft) 100,00 %
25.09.2022 00:24 13,3 C 12,8 C 9,4 C 96 % 1014,4 hPa 0,0 l/m 0 min 0 min 0 W/m 12,9 km/h (3 Bft) 100,00 %
25.09.2022 00:26 13,3 C 12,8 C 9,4 C 96 % 1014,4 hPa 0,0 l/m 0 min 0 min 0 W/m 12,9 km/h (3 Bft) 100,00 %
25.09.2022 00:28 13,3 C 12,8 C 9,4 C 96 % 1014,4 hPa 0,0 l/m 0 min 0 min 0 W/m 6,4 km/h (2 Bft) 97,87 %
25.09.2022 00:30 13,3 C 12,8 C 9,4 C 96 % 1014,4 hPa 0,0 l/m 0 min 0 min 0 W/m 6,4 km/h (2 Bft) 97,87 %
25.09.2022 00:32 13,3 C 12,8 C 9,4 C 96 % 1014,4 hPa 0,0 l/m 0 min 0 min 0 W/m 12,9 km/h (3 Bft) 97,37 %
25.09.2022 00:34 13,3 C 12,8 C 9,4 C 96 % 1014,4 hPa 0,0 l/m 0 min 0 min 0 W/m 6,4 km/h (2 Bft) 97,87 %
25.09.2022 00:36 13,3 C 12,8 C 9,4 C 96 % 1014,5 hPa 0,0 l/m 0 min 0 min 0 W/m 12,9 km/h (3 Bft) 96,61 %
25.09.2022 00:38 13,3 C 12,8 C 9,4 C 96 % 1014,5 hPa 0,0 l/m 0 min 0 min 0 W/m 3,2 km/h (1 Bft) 100,00 %
25.09.2022 00:40 13,2 C 12,8 C 9,4 C 96 % 1014,5 hPa 0,0 l/m 0 min 0 min 0 W/m 6,4 km/h (2 Bft) 97,87 %
25.09.2022 00:42 13,3 C 12,8 C 9,4 C 96 % 1014,5 hPa 0,0 l/m 0 min 0 min 0 W/m 3,2 km/h (1 Bft) 95,65 %
25.09.2022 00:44 13,3 C 12,8 C 9,4 C 96 % 1014,5 hPa 0,0 l/m 0 min 0 min 0 W/m 6,4 km/h (2 Bft) 97,87 %
25.09.2022 00:46 13,3 C 12,8 C 9,4 C 96 % 1014,5 hPa 0,0 l/m 0 min 0 min 0 W/m 9,7 km/h (2 Bft) 95,74 %
25.09.2022 00:48 13,2 C 12,8 C 9,4 C 96 % 1014,5 hPa 0,0 l/m 0 min 0 min 0 W/m 16,1 km/h (3 Bft) 95,74 %
25.09.2022 00:50 13,2 C 12,8 C 8,9 C 96 % 1014,5 hPa 0,0 l/m 0 min 0 min 0 W/m 3,2 km/h (1 Bft) 97,87 %
25.09.2022 00:52 13,2 C 12,8 C 8,9 C 96 % 1014,5 hPa 0,0 l/m 0 min 0 min 0 W/m 3,2 km/h (1 Bft) 95,74 %
25.09.2022 00:54 13,2 C 12,8 C 8,9 C 96 % 1014,5 hPa 0,0 l/m 0 min 0 min 0 W/m 9,7 km/h (2 Bft) 97,83 %
25.09.2022 00:56 13,2 C 12,2 C 8,9 C 96 % 1014,5 hPa 0,0 l/m 0 min 0 min 0 W/m 9,7 km/h (2 Bft) 97,87 %
25.09.2022 00:58 13,2 C 12,2 C 8,9 C 96 % 1014,5 hPa 0,0 l/m 0 min 0 min 0 W/m 3,2 km/h (1 Bft) 93,62 %
25.09.2022 01:00 13,2 C 12,2 C 8,9 C 96 % 1014,5 hPa 0,0 l/m 0 min 0 min 0 W/m 12,9 km/h (3 Bft) 93,62 %
25.09.2022 01:02 13,2 C 12,2 C 8,9 C 96 % 1014,5 hPa 0,0 l/m 0 min 0 min 0 W/m 3,2 km/h (1 Bft) 95,83 %
25.09.2022 01:04 13,2 C 12,2 C 8,9 C 96 % 1014,5 hPa 0,0 l/m 0 min 0 min 0 W/m 3,2 km/h (1 Bft) 95,74 %
25.09.2022 01:06 13,2 C 12,2 C 8,9 C 96 % 1014,5 hPa 0,0 l/m 0 min 0 min 0 W/m 6,4 km/h (2 Bft) 93,48 %
25.09.2022 01:08 13,2 C 12,2 C 8,9 C 96 % 1014,5 hPa 0,0 l/m 0 min 0 min 0 W/m 3,2 km/h (1 Bft) 93,62 %
25.09.2022 01:10 13,2 C 12,2 C 8,9 C 96 % 1014,5 hPa 0,0 l/m 0 min 0 min 0 W/m 6,4 km/h (2 Bft) 95,74 %
25.09.2022 01:12 13,2 C 12,2 C 8,9 C 96 % 1014,5 hPa 0,0 l/m 0 min 0 min 0 W/m 3,2 km/h (1 Bft) 93,62 %
25.09.2022 01:14 13,2 C 12,2 C 8,9 C 96 % 1014,5 hPa 0,0 l/m 0 min 0 min 0 W/m 3,2 km/h (1 Bft) 93,62 %
25.09.2022 01:16 13,2 C 12,2 C 8,9 C 96 % 1014,5 hPa 0,0 l/m 0 min 0 min 0 W/m 3,2 km/h (1 Bft) 91,30 %
25.09.2022 01:18 13,1 C 12,2 C 8,9 C 96 % 1014,5 hPa 0,0 l/m 0 min 0 min 0 W/m 3,2 km/h (1 Bft) 91,49 %
25.09.2022 01:20 13,1 C 12,2 C 8,9 C 96 % 1014,5 hPa 0,0 l/m 0 min 0 min 0 W/m 3,2 km/h (1 Bft) 93,62 %
25.09.2022 01:22 13,1 C 12,8 C 9,4 C 96 % 1014,4 hPa 0,0 l/m 0 min 0 min 0 W/m 9,7 km/h (2 Bft) 93,62 %
25.09.2022 01:24 13,1 C 12,8 C 9,4 C 96 % 1014,5 hPa 0,0 l/m 0 min 0 min 0 W/m 9,7 km/h (2 Bft) 93,62 %
25.09.2022 01:26 13,1 C 12,2 C 9,4 C 96 % 1014,4 hPa 0,0 l/m 0 min 0 min 0 W/m 6,4 km/h (2 Bft) 95,74 %
25.09.2022 01:28 13,1 C 12,2 C 9,4 C 96 % 1014,5 hPa 0,0 l/m 0 min 0 min 0 W/m 12,9 km/h (3 Bft) 97,87 %
25.09.2022 01:30 13,1 C 12,2 C 9,4 C 96 % 1014,5 hPa 0,0 l/m 0 min 0 min 0 W/m 6,4 km/h (2 Bft) 97,83 %
25.09.2022 01:32 13,1 C 12,2 C 9,4 C 96 % 1014,5 hPa 0,0 l/m 0 min 0 min 0 W/m 6,4 km/h (2 Bft) 95,83 %
25.09.2022 01:34 13,1 C 12,2 C 9,4 C 96 % 1014,5 hPa 0,0 l/m 0 min 0 min 0 W/m 12,9 km/h (3 Bft) 95,74 %
25.09.2022 01:36 13,0 C 12,2 C 9,4 C 96 % 1014,5 hPa 0,0 l/m 0 min 0 min 0 W/m 3,2 km/h (1 Bft) 97,87 %
25.09.2022 01:38 13,1 C 12,2 C 9,4 C 96 % 1014,5 hPa 0,0 l/m 0 min 0 min 0 W/m 6,4 km/h (2 Bft) 97,87 %
25.09.2022 01:40 13,0 C 12,2 C 9,4 C 96 % 1014,5 hPa 0,0 l/m 0 min 0 min 0 W/m 6,4 km/h (2 Bft) 97,96 %
25.09.2022 01:42 13,0 C 12,2 C 9,4 C 96 % 1014,5 hPa 0,0 l/m 0 min 0 min 0 W/m 6,4 km/h (2 Bft) 97,83 %
25.09.2022 01:44 13,0 C 12,2 C 9,4 C 96 % 1014,5 hPa 0,0 l/m 0 min 0 min 0 W/m 3,2 km/h (1 Bft) 95,74 %
25.09.2022 01:46 13,0 C 12,2 C 9,4 C 96 % 1014,5 hPa 0,0 l/m 0 min 0 min 0 W/m 3,2 km/h (1 Bft) 97,87 %
25.09.2022 01:48 13,0 C 12,2 C 9,4 C 96 % 1014,5 hPa 0,0 l/m 0 min 0 min 0 W/m 3,2 km/h (1 Bft) 97,87 %
25.09.2022 01:50 13,0 C 12,2 C 9,4 C 96 % 1014,5 hPa 0,0 l/m 0 min 0 min 0 W/m 6,4 km/h (2 Bft) 97,87 %
25.09.2022 01:52 12,9 C 12,2 C 9,4 C 96 % 1014,6 hPa 0,0 l/m 0 min 0 min 0 W/m 9,7 km/h (2 Bft) 95,74 %
25.09.2022 01:54 12,9 C 12,2 C 9,4 C 96 % 1014,6 hPa 0,0 l/m 0 min 0 min 0 W/m 6,4 km/h (2 Bft) 97,83 %
25.09.2022 01:56 12,9 C 12,2 C 9,4 C 96 % 1014,6 hPa 0,0 l/m 0 min 0 min 0 W/m 9,7 km/h (2 Bft) 97,87 %
25.09.2022 01:58 12,8 C 12,2 C 8,9 C 96 % 1014,6 hPa 0,0 l/m 0 min 0 min 0 W/m 12,9 km/h (3 Bft) 100,00 %
25.09.2022 02:00 12,8 C 12,2 C 8,9 C 96 % 1014,6 hPa 0,0 l/m 0 min 0 min 0 W/m 12,9 km/h (3 Bft) 100,00 %
25.09.2022 02:02 12,8 C 12,2 C 8,9 C 96 % 1014,6 hPa 0,0 l/m 0 min 0 min 0 W/m 6,4 km/h (2 Bft) 100,00 %
25.09.2022 02:04 12,8 C 12,2 C 8,9 C 96 % 1014,6 hPa 0,0 l/m 0 min 0 min 0 W/m 6,4 km/h (2 Bft) 100,00 %
25.09.2022 02:06 12,7 C 12,2 C 8,9 C 96 % 1014,6 hPa 0,0 l/m 0 min 0 min 0 W/m 12,9 km/h (3 Bft) 100,00 %
25.09.2022 02:08 12,7 C 12,2 C 8,9 C 96 % 1014,6 hPa 0,0 l/m 0 min 0 min 0 W/m 12,9 km/h (3 Bft) 100,00 %
25.09.2022 02:10 12,7 C 12,2 C 8,9 C 96 % 1014,6 hPa 0,0 l/m 0 min 0 min 0 W/m 6,4 km/h (2 Bft) 100,00 %
25.09.2022 02:12 12,7 C 12,2 C 8,9 C 96 % 1014,6 hPa 0,0 l/m 0 min 0 min 0 W/m 6,4 km/h (2 Bft) 100,00 %
25.09.2022 02:14 12,7 C 12,2 C 8,9 C 96 % 1014,6 hPa 0,0 l/m 0 min 0 min 0 W/m 6,4 km/h (2 Bft) 100,00 %
25.09.2022 02:16 12,7 C 12,2 C 8,9 C 96 % 1014,6 hPa 0,0 l/m 0 min 0 min 0 W/m 16,1 km/h (3 Bft) 100,00 %
25.09.2022 02:18 12,7 C 12,2 C 8,9 C 96 % 1014,6 hPa 0,0 l/m 0 min 0 min 0 W/m 12,9 km/h (3 Bft) 100,00 %
25.09.2022 02:20 12,6 C 12,2 C 8,9 C 96 % 1014,6 hPa 0,0 l/m 0 min 0 min 0 W/m 9,7 km/h (2 Bft) 100,00 %
25.09.2022 02:22 12,6 C 12,2 C 8,9 C 95 % 1014,5 hPa 0,0 l/m 0 min 0 min 0 W/m 16,1 km/h (3 Bft) 100,00 %
25.09.2022 02:24 12,6 C 12,2 C 8,9 C 95 % 1014,6 hPa 0,0 l/m 0 min 0 min 0 W/m 6,4 km/h (2 Bft) 100,00 %
25.09.2022 02:26 12,6 C 12,2 C 8,9 C 95 % 1014,6 hPa 0,0 l/m 0 min 0 min 0 W/m 9,7 km/h (2 Bft) 100,00 %
25.09.2022 02:28 12,6 C 12,2 C 8,9 C 95 % 1014,6 hPa 0,0 l/m 0 min 0 min 0 W/m 16,1 km/h (3 Bft) 100,00 %
25.09.2022 02:30 12,6 C 12,2 C 8,9 C 95 % 1014,6 hPa 0,0 l/m 0 min 0 min 0 W/m 6,4 km/h (2 Bft) 100,00 %
25.09.2022 02:32 12,6 C 12,2 C 8,9 C 95 % 1014,6 hPa 0,0 l/m 0 min 0 min 0 W/m 12,9 km/h (3 Bft) 100,00 %
25.09.2022 02:34 12,6 C 12,2 C 8,9 C 95 % 1014,5 hPa 0,0 l/m 0 min 0 min 0 W/m 12,9 km/h (3 Bft) 100,00 %
25.09.2022 02:36 12,6 C 12,2 C 8,9 C 95 % 1014,6 hPa 0,0 l/m 0 min 0 min 0 W/m 12,9 km/h (3 Bft) 100,00 %
25.09.2022 02:38 12,6 C 12,2 C 8,9 C 95 % 1014,5 hPa 0,0 l/m 0 min 0 min 0 W/m 12,9 km/h (3 Bft) 100,00 %
25.09.2022 02:40 12,7 C 12,2 C 8,9 C 95 % 1014,5 hPa 0,0 l/m 0 min 0 min 0 W/m 6,4 km/h (2 Bft) 97,83 %
25.09.2022 02:42 12,6 C 12,2 C 8,9 C 95 % 1014,5 hPa 0,0 l/m 0 min 0 min 0 W/m 12,9 km/h (3 Bft) 100,00 %
25.09.2022 02:44 12,6 C 12,2 C 8,9 C 95 % 1014,5 hPa 0,0 l/m 0 min 0 min 0 W/m 12,9 km/h (3 Bft) 100,00 %
25.09.2022 02:46 12,6 C 12,2 C 8,9 C 95 % 1014,5 hPa 0,0 l/m 0 min 0 min 0 W/m 6,4 km/h (2 Bft) 72,34 %
25.09.2022 02:48 12,7 C 12,2 C 8,9 C 95 % 1014,6 hPa 0,0 l/m 0 min 0 min 0 W/m 6,4 km/h (2 Bft) 79,07 %
25.09.2022 02:50 12,7 C 12,2 C 8,9 C 95 % 1014,6 hPa 0,0 l/m 0 min 0 min 0 W/m 6,4 km/h (2 Bft) 97,87 %
25.09.2022 02:52 12,7 C 12,2 C 8,9 C 95 % 1014,6 hPa 0,0 l/m 0 min 0 min 0 W/m 12,9 km/h (3 Bft) 93,62 %
25.09.2022 02:54 12,7 C 12,2 C 8,9 C 95 % 1014,6 hPa 0,0 l/m 0 min 0 min 0 W/m 12,9 km/h (3 Bft) 97,87 %
25.09.2022 02:56 12,7 C 12,2 C 8,9 C 95 % 1014,6 hPa 0,0 l/m 0 min 0 min 0 W/m 9,7 km/h (2 Bft) 97,83 %
25.09.2022 02:58 12,7 C 12,2 C 8,9 C 95 % 1014,6 hPa 0,0 l/m 0 min 0 min 0 W/m 12,9 km/h (3 Bft) 98,00 %
25.09.2022 03:00 12,7 C 12,2 C 8,9 C 95 % 1014,7 hPa 0,0 l/m 0 min 0 min 0 W/m 6,4 km/h (2 Bft) 97,87 %
25.09.2022 03:02 12,7 C 12,2 C 8,9 C 95 % 1014,6 hPa 0,0 l/m 0 min 0 min 0 W/m 6,4 km/h (2 Bft) 97,87 %
25.09.2022 03:04 12,7 C 12,2 C 8,9 C 95 % 1014,7 hPa 0,0 l/m 0 min 0 min 0 W/m 6,4 km/h (2 Bft) 95,74 %
25.09.2022 03:06 12,7 C 12,2 C 8,9 C 95 % 1014,7 hPa 0,0 l/m 0 min 0 min 0 W/m 6,4 km/h (2 Bft) 96,55 %
25.09.2022 03:08 12,7 C 12,2 C 8,9 C 95 % 1014,7 hPa 0,0 l/m 0 min 0 min 0 W/m 12,9 km/h (3 Bft) 97,14 %
25.09.2022 03:10 12,7 C 12,2 C 8,9 C 95 % 1014,7 hPa 0,0 l/m 0 min 0 min 0 W/m 16,1 km/h (3 Bft) 97,87 %
25.09.2022 03:12 12,7 C 12,2 C 8,9 C 95 % 1014,7 hPa 0,0 l/m 0 min 0 min 0 W/m 12,9 km/h (3 Bft) 97,87 %
25.09.2022 03:14 12,7 C 12,2 C 8,9 C 95 % 1014,7 hPa 0,0 l/m 0 min 0 min 0 W/m 9,7 km/h (2 Bft) 97,87 %
25.09.2022 03:16 12,7 C 12,2 C 8,9 C 95 % 1014,7 hPa 0,0 l/m 0 min 0 min 0 W/m 3,2 km/h (1 Bft) 97,87 %
25.09.2022 03:18 12,7 C 12,2 C 8,9 C 95 % 1014,7 hPa 0,0 l/m 0 min 0 min 0 W/m 9,7 km/h (2 Bft) 100,00 %
25.09.2022 03:20 12,7 C 12,2 C 8,9 C 95 % 1014,7 hPa 0,0 l/m 0 min 0 min 0 W/m 6,4 km/h (2 Bft) 100,00 %
25.09.2022 03:22 12,6 C 12,2 C 8,9 C 95 % 1014,7 hPa 0,0 l/m 0 min 0 min 0 W/m 6,4 km/h (2 Bft) 100,00 %
25.09.2022 03:24 12,6 C 12,2 C 8,9 C 95 % 1014,7 hPa 0,0 l/m 0 min 0 min 0 W/m 6,4 km/h (2 Bft) 97,87 %
25.09.2022 03:26 12,6 C 12,2 C 8,9 C 95 % 1014,7 hPa 0,0 l/m 0 min 0 min 0 W/m 3,2 km/h (1 Bft) 100,00 %
25.09.2022 03:28 12,6 C 12,2 C 8,9 C 95 % 1014,7 hPa 0,0 l/m 0 min 0 min 0 W/m 12,9 km/h (3 Bft) 100,00 %
25.09.2022 03:30 12,6 C 12,2 C 8,9 C 95 % 1014,7 hPa 0,0 l/m 0 min 0 min 0 W/m 6,4 km/h (2 Bft) 97,87 %
25.09.2022 03:32 12,6 C 12,2 C 8,9 C 95 % 1014,7 hPa 0,0 l/m 0 min 0 min 0 W/m 9,7 km/h (2 Bft) 100,00 %
25.09.2022 03:34 12,6 C 12,2 C 8,9 C 95 % 1014,7 hPa 0,0 l/m 0 min 0 min 0 W/m 9,7 km/h (2 Bft) 95,74 %
25.09.2022 03:36 12,6 C 12,2 C 8,9 C 95 % 1014,8 hPa 0,0 l/m 0 min 0 min 0 W/m 9,7 km/h (2 Bft) 100,00 %
25.09.2022 03:38 12,6 C 12,2 C 8,9 C 95 % 1014,8 hPa 0,0 l/m 0 min 0 min 0 W/m 6,4 km/h (2 Bft) 100,00 %
25.09.2022 03:40 12,6 C 12,2 C 8,9 C 95 % 1014,7 hPa 0,0 l/m 0 min 0 min 0 W/m 6,4 km/h (2 Bft) 97,87 %
25.09.2022 03:42 12,6 C 12,2 C 8,9 C 95 % 1014,7 hPa 0,0 l/m 0 min 0 min 0 W/m 16,1 km/h (3 Bft) 97,83 %
25.09.2022 03:44 12,6 C 12,2 C 8,9 C 95 % 1014,8 hPa 0,0 l/m 0 min 0 min 0 W/m 6,4 km/h (2 Bft) 95,74 %
25.09.2022 03:46 12,6 C 12,2 C 8,9 C 95 % 1014,8 hPa 0,0 l/m 0 min 0 min 0 W/m 6,4 km/h (2 Bft) 95,74 %
25.09.2022 03:48 12,6 C 12,2 C 8,9 C 95 % 1014,8 hPa 0,0 l/m 0 min 0 min 0 W/m 9,7 km/h (2 Bft) 95,74 %
25.09.2022 03:50 12,6 C 12,2 C 8,9 C 95 % 1014,8 hPa 0,0 l/m 0 min 0 min 0 W/m 6,4 km/h (2 Bft) 95,74 %
25.09.2022 03:52 12,5 C 12,2 C 8,9 C 95 % 1014,8 hPa 0,0 l/m 0 min 0 min 0 W/m 16,1 km/h (3 Bft) 91,49 %
25.09.2022 03:54 12,5 C 12,2 C 8,9 C 95 % 1014,8 hPa 0,0 l/m 0 min 0 min 0 W/m 12,9 km/h (3 Bft) 93,48 %
25.09.2022 03:56 12,5 C 11,7 C 8,9 C 95 % 1014,8 hPa 0,0 l/m 0 min 0 min 0 W/m 6,4 km/h (2 Bft) 97,87 %
25.09.2022 03:58 12,5 C 11,7 C 8,9 C 95 % 1014,9 hPa 0,0 l/m 0 min 0 min 0 W/m 16,1 km/h (3 Bft) 93,62 %
25.09.2022 04:00 12,5 C 11,7 C 8,3 C 95 % 1014,9 hPa 0,0 l/m 0 min 0 min 0 W/m 6,4 km/h (2 Bft) 95,74 %
25.09.2022 04:02 12,5 C 11,7 C 8,3 C 95 % 1014,9 hPa 0,0 l/m 0 min 0 min 0 W/m 3,2 km/h (1 Bft) 100,00 %
25.09.2022 04:04 12,5 C 11,7 C 8,3 C 95 % 1014,9 hPa 0,0 l/m 0 min 0 min 0 W/m 6,4 km/h (2 Bft) 95,74 %
25.09.2022 04:06 12,5 C 11,7 C 8,3 C 95 % 1014,9 hPa 0,0 l/m 0 min 0 min 0 W/m 6,4 km/h (2 Bft) 96,55 %
25.09.2022 04:08 12,5 C 11,7 C 8,3 C 95 % 1014,9 hPa 0,0 l/m 0 min 0 min 0 W/m 6,4 km/h (2 Bft) 94,29 %
25.09.2022 04:10 12,5 C 11,7 C 8,3 C 95 % 1014,8 hPa 0,0 l/m 0 min 0 min 0 W/m 6,4 km/h (2 Bft) 95,74 %
25.09.2022 04:12 12,5 C 11,7 C 8,3 C 95 % 1014,8 hPa 0,0 l/m 0 min 0 min 0 W/m 3,2 km/h (1 Bft) 93,62 %
25.09.2022 04:14 12,5 C 11,7 C 8,3 C 95 % 1014,8 hPa 0,0 l/m 0 min 0 min 0 W/m 6,4 km/h (2 Bft) 93,62 %
25.09.2022 04:16 12,5 C 11,7 C 8,3 C 95 % 1014,8 hPa 0,0 l/m 0 min 0 min 0 W/m 6,4 km/h (2 Bft) 95,74 %
25.09.2022 04:18 12,5 C 11,7 C 8,3 C 95 % 1014,8 hPa 0,0 l/m 0 min 0 min 0 W/m 6,4 km/h (2 Bft) 95,65 %
25.09.2022 04:20 12,4 C 11,7 C 8,3 C 95 % 1014,8 hPa 0,0 l/m 0 min 0 min 0 W/m 9,7 km/h (2 Bft) 95,74 %
25.09.2022 04:22 12,4 C 11,7 C 8,3 C 95 % 1014,9 hPa 0,0 l/m 0 min 0 min 0 W/m 9,7 km/h (2 Bft) 93,62 %
25.09.2022 04:24 12,4 C 11,7 C 8,3 C 95 % 1014,8 hPa 0,0 l/m 0 min 0 min 0 W/m 9,7 km/h (2 Bft) 89,36 %
25.09.2022 04:26 12,4 C 11,7 C 8,3 C 96 % 1014,8 hPa 0,0 l/m 0 min 0 min 0 W/m 6,4 km/h (2 Bft) 95,74 %
25.09.2022 04:28 12,4 C 11,7 C 8,3 C 96 % 1014,8 hPa 0,0 l/m 0 min 0 min 0 W/m 6,4 km/h (2 Bft) 95,74 %
25.09.2022 04:30 12,4 C 11,7 C 8,3 C 96 % 1014,8 hPa 0,0 l/m 0 min 0 min 0 W/m 9,7 km/h (2 Bft) 93,48 %
25.09.2022 04:32 12,4 C 11,7 C 8,3 C 95 % 1014,8 hPa 0,0 l/m 0 min 0 min 0 W/m 12,9 km/h (3 Bft) 95,74 %
25.09.2022 04:34 12,3 C 11,7 C 8,3 C 95 % 1014,8 hPa 0,0 l/m 0 min 0 min 0 W/m 6,4 km/h (2 Bft) 97,87 %
25.09.2022 04:36 12,3 C 11,7 C 8,3 C 95 % 1014,8 hPa 0,0 l/m 0 min 0 min 0 W/m 6,4 km/h (2 Bft) 96,61 %
25.09.2022 04:38 12,3 C 11,7 C 8,3 C 95 % 1014,8 hPa 0,0 l/m 0 min 0 min 0 W/m 6,4 km/h (2 Bft) 100,00 %
25.09.2022 04:40 12,3 C 11,7 C 8,3 C 96 % 1014,8 hPa 0,0 l/m 0 min 0 min 0 W/m 6,4 km/h (2 Bft) 97,87 %
25.09.2022 04:42 12,3 C 11,7 C 8,3 C 96 % 1014,7 hPa 0,0 l/m 0 min 0 min 0 W/m 6,4 km/h (2 Bft) 95,65 %
25.09.2022 04:44 12,3 C 11,7 C 8,3 C 96 % 1014,8 hPa 0,0 l/m 0 min 0 min 0 W/m 6,4 km/h (2 Bft) 97,87 %
25.09.2022 04:46 12,3 C 11,7 C 8,3 C 96 % 1014,7 hPa 0,0 l/m 0 min 0 min 0 W/m 12,9 km/h (3 Bft) 95,74 %
25.09.2022 04:48 12,3 C 11,7 C 8,3 C 96 % 1014,7 hPa 0,0 l/m 0 min 0 min 0 W/m 6,4 km/h (2 Bft) 97,87 %
25.09.2022 04:50 12,3 C 11,7 C 8,3 C 96 % 1014,7 hPa 0,0 l/m 0 min 0 min 0 W/m 6,4 km/h (2 Bft) 97,87 %
25.09.2022 04:52 12,3 C 11,7 C 8,3 C 96 % 1014,8 hPa 0,0 l/m 0 min 0 min 0 W/m 3,2 km/h (1 Bft) 97,87 %
25.09.2022 04:54 12,3 C 11,7 C 8,3 C 96 % 1014,7 hPa 0,0 l/m 0 min 0 min 0 W/m 6,4 km/h (2 Bft) 97,83 %
25.09.2022 04:56 12,3 C 11,7 C 8,3 C 96 % 1014,8 hPa 0,0 l/m 0 min 0 min 0 W/m 6,4 km/h (2 Bft) 95,74 %
25.09.2022 04:58 12,3 C 11,7 C 8,3 C 96 % 1014,8 hPa 0,0 l/m 0 min 0 min 0 W/m 6,4 km/h (2 Bft) 97,87 %
25.09.2022 05:00 12,3 C 11,7 C 8,3 C 96 % 1014,8 hPa 0,0 l/m 0 min 0 min 0 W/m 12,9 km/h (3 Bft) 97,87 %
25.09.2022 05:02 12,3 C 11,7 C 8,9 C 96 % 1014,8 hPa 0,0 l/m 0 min 0 min 0 W/m 6,4 km/h (2 Bft) 97,87 %
25.09.2022 05:04 12,3 C 11,7 C 8,3 C 96 % 1014,8 hPa 0,0 l/m 0 min 0 min 0 W/m 3,2 km/h (1 Bft) 95,74 %
25.09.2022 05:06 12,3 C 11,7 C 8,9 C 96 % 1014,8 hPa 0,0 l/m 0 min 0 min 0 W/m 6,4 km/h (2 Bft) 98,28 %
25.09.2022 05:08 12,3 C 11,7 C 8,3 C 96 % 1014,9 hPa 0,0 l/m 0 min 0 min 0 W/m 6,4 km/h (2 Bft) 100,00 %
25.09.2022 05:10 12,3 C 11,7 C 8,3 C 96 % 1014,8 hPa 0,0 l/m 0 min 0 min 0 W/m 12,9 km/h (3 Bft) 100,00 %
25.09.2022 05:12 12,2 C 11,7 C 8,3 C 96 % 1014,8 hPa 0,0 l/m 0 min 0 min 0 W/m 16,1 km/h (3 Bft) 100,00 %
25.09.2022 05:14 12,2 C 11,7 C 8,3 C 96 % 1014,9 hPa 0,0 l/m 0 min 0 min 0 W/m 12,9 km/h (3 Bft) 100,00 %
25.09.2022 05:16 12,2 C 11,7 C 8,3 C 96 % 1014,9 hPa 0,0 l/m 0 min 0 min 0 W/m 9,7 km/h (2 Bft) 100,00 %
25.09.2022 05:18 12,2 C 11,7 C 8,3 C 96 % 1014,9 hPa 0,0 l/m 0 min 0 min 0 W/m 12,9 km/h (3 Bft) 100,00 %
25.09.2022 05:20 12,2 C 11,7 C 8,3 C 96 % 1014,9 hPa 0,0 l/m 0 min 0 min 0 W/m 9,7 km/h (2 Bft) 100,00 %
25.09.2022 05:22 12,2 C 11,7 C 8,3 C 96 % 1014,9 hPa 0,0 l/m 0 min 0 min 0 W/m 6,4 km/h (2 Bft) 100,00 %
25.09.2022 05:24 12,2 C 11,7 C 8,3 C 96 % 1014,9 hPa 0,0 l/m 0 min 0 min 0 W/m 9,7 km/h (2 Bft) 100,00 %
25.09.2022 05:26 12,2 C 11,7 C 8,3 C 96 % 1014,9 hPa 0,0 l/m 0 min 0 min 0 W/m 6,4 km/h (2 Bft) 100,00 %
25.09.2022 05:28 12,2 C 11,7 C 8,3 C 96 % 1014,9 hPa 0,0 l/m 0 min 0 min 0 W/m 6,4 km/h (2 Bft) 100,00 %
25.09.2022 05:30 12,1 C 11,7 C 8,3 C 96 % 1014,9 hPa 0,0 l/m 0 min 0 min 0 W/m 9,7 km/h (2 Bft) 97,22 %
25.09.2022 05:32 12,1 C 11,7 C 8,3 C 96 % 1014,9 hPa 0,0 l/m 0 min 0 min 0 W/m 9,7 km/h (2 Bft) 100,00 %
25.09.2022 05:34 12,1 C 11,7 C 8,3 C 96 % 1014,9 hPa 0,0 l/m 0 min 0 min 0 W/m 9,7 km/h (2 Bft) 100,00 %
25.09.2022 05:36 12,1 C 11,7 C 8,3 C 96 % 1014,8 hPa 0,0 l/m 0 min 0 min 0 W/m 6,4 km/h (2 Bft) 100,00 %
25.09.2022 05:38 12,1 C 11,7 C 8,3 C 96 % 1014,9 hPa 0,0 l/m 0 min 0 min 0 W/m 3,2 km/h (1 Bft) 100,00 %
25.09.2022 05:40 12,1 C 11,7 C 8,3 C 96 % 1014,8 hPa 0,0 l/m 0 min 0 min 0 W/m 9,7 km/h (2 Bft) 100,00 %
25.09.2022 05:42 12,0 C 11,7 C 8,3 C 96 % 1014,9 hPa 0,0 l/m 0 min 0 min 0 W/m 6,4 km/h (2 Bft) 100,00 %
25.09.2022 05:44 12,0 C 11,7 C 8,3 C 96 % 1014,9 hPa 0,0 l/m 0 min 0 min 0 W/m 9,7 km/h (2 Bft) 100,00 %
25.09.2022 05:46 12,0 C 11,7 C 8,3 C 96 % 1014,9 hPa 0,0 l/m 0 min 0 min 0 W/m 6,4 km/h (2 Bft) 100,00 %
25.09.2022 05:48 11,9 C 11,7 C 8,3 C 96 % 1014,9 hPa 0,0 l/m 0 min 0 min 0 W/m 6,4 km/h (2 Bft) 100,00 %
25.09.2022 05:50 12,0 C 11,7 C 8,3 C 95 % 1014,9 hPa 0,0 l/m 0 min 0 min 0 W/m 6,4 km/h (2 Bft) 100,00 %
25.09.2022 05:52 11,9 C 11,7 C 8,3 C 95 % 1015,0 hPa 0,0 l/m 0 min 0 min 0 W/m 12,9 km/h (3 Bft) 100,00 %
25.09.2022 05:54 11,9 C 11,1 C 8,3 C 95 % 1014,9 hPa 0,0 l/m 0 min 0 min 0 W/m 6,4 km/h (2 Bft) 100,00 %
25.09.2022 05:56 11,9 C 11,1 C 8,3 C 95 % 1014,9 hPa 0,0 l/m 0 min 0 min 0 W/m 9,7 km/h (2 Bft) 100,00 %
25.09.2022 05:58 11,9 C 11,1 C 8,3 C 95 % 1014,8 hPa 0,0 l/m 0 min 0 min 0 W/m 12,9 km/h (3 Bft) 97,87 %
25.09.2022 06:00 11,9 C 11,1 C 8,3 C 95 % 1014,8 hPa 0,0 l/m 0 min 0 min 0 W/m 9,7 km/h (2 Bft) 100,00 %
25.09.2022 06:02 11,9 C 11,1 C 8,3 C 95 % 1014,9 hPa 0,0 l/m 0 min 0 min 0 W/m 3,2 km/h (1 Bft) 100,00 %
25.09.2022 06:04 11,9 C 11,1 C 8,3 C 95 % 1014,9 hPa 0,0 l/m 0 min 0 min 0 W/m 6,4 km/h (2 Bft) 100,00 %
25.09.2022 06:08 11,9 C 11,1 C 8,3 C 95 % 1014,9 hPa 0,0 l/m 0 min 0 min 0 W/m 12,9 km/h (3 Bft) 100,00 %
25.09.2022 06:10 11,8 C 11,1 C 8,3 C 95 % 1014,9 hPa 0,0 l/m 0 min 0 min 0 W/m 12,9 km/h (3 Bft) 97,87 %
25.09.2022 06:12 11,8 C 11,1 C 8,3 C 95 % 1015,0 hPa 0,0 l/m 0 min 0 min 0 W/m 9,7 km/h (2 Bft) 100,00 %
25.09.2022 06:14 11,8 C 11,1 C 8,3 C 95 % 1014,9 hPa 0,0 l/m 0 min 0 min 0 W/m 6,4 km/h (2 Bft) 100,00 %
25.09.2022 06:16 11,8 C 11,1 C 8,3 C 95 % 1014,9 hPa 0,0 l/m 0 min 0 min 0 W/m 6,4 km/h (2 Bft) 95,74 %
25.09.2022 06:18 11,8 C 11,1 C 8,3 C 95 % 1014,9 hPa 0,0 l/m 0 min 0 min 0 W/m 6,4 km/h (2 Bft) 97,87 %
25.09.2022 06:20 11,8 C 11,1 C 8,3 C 95 % 1014,9 hPa 0,0 l/m 0 min 0 min 0 W/m 6,4 km/h (2 Bft) 95,74 %
25.09.2022 06:22 11,8 C 11,1 C 8,3 C 95 % 1014,9 hPa 0,0 l/m 0 min 0 min 0 W/m 3,2 km/h (1 Bft) 97,87 %
25.09.2022 06:24 11,8 C 11,1 C 8,3 C 95 % 1014,9 hPa 0,0 l/m 0 min 0 min 0 W/m 3,2 km/h (1 Bft) 93,48 %
25.09.2022 06:26 11,8 C 11,1 C 8,3 C 95 % 1014,8 hPa 0,0 l/m 0 min 0 min 0 W/m 3,2 km/h (1 Bft) 95,74 %
25.09.2022 06:28 11,8 C 11,1 C 8,3 C 95 % 1014,8 hPa 0,0 l/m 0 min 0 min 0 W/m 9,7 km/h (2 Bft) 95,74 %
25.09.2022 06:30 11,7 C 11,1 C 8,3 C 95 % 1014,8 hPa 0,0 l/m 0 min 0 min 0 W/m 9,7 km/h (2 Bft) 93,62 %
25.09.2022 06:32 11,7 C 11,1 C 8,3 C 95 % 1014,8 hPa 0,0 l/m 0 min 0 min 0 W/m 6,4 km/h (2 Bft) 93,62 %
25.09.2022 06:34 11,7 C 11,1 C 7,8 C 95 % 1014,8 hPa 0,0 l/m 0 min 0 min 0 W/m 6,4 km/h (2 Bft) 93,62 %
25.09.2022 06:36 11,7 C 11,1 C 7,8 C 95 % 1014,8 hPa 0,0 l/m 0 min 0 min 0 W/m 6,4 km/h (2 Bft) 95,65 %
25.09.2022 06:38 11,7 C 11,1 C 7,8 C 95 % 1014,8 hPa 0,0 l/m 0 min 0 min 0 W/m 6,4 km/h (2 Bft) 95,83 %
25.09.2022 06:40 11,6 C 11,1 C 7,8 C 95 % 1014,8 hPa 0,0 l/m 0 min 0 min 0 W/m 6,4 km/h (2 Bft) 95,74 %
25.09.2022 06:42 11,6 C 11,1 C 7,8 C 95 % 1014,8 hPa 0,0 l/m 0 min 0 min 0 W/m 9,7 km/h (2 Bft) 93,62 %
25.09.2022 06:44 11,6 C 11,1 C 7,8 C 95 % 1014,8 hPa 0,0 l/m 0 min 0 min 0 W/m 3,2 km/h (1 Bft) 95,74 %
25.09.2022 06:46 11,6 C 11,1 C 7,8 C 95 % 1014,9 hPa 0,0 l/m 0 min 0 min 0 W/m 3,2 km/h (1 Bft) 93,62 %
25.09.2022 06:48 11,5 C 11,1 C 7,8 C 95 % 1014,9 hPa 0,0 l/m 0 min 0 min 0 W/m 6,4 km/h (2 Bft) 93,48 %
25.09.2022 06:50 11,6 C 11,1 C 7,8 C 95 % 1014,8 hPa 0,0 l/m 0 min 0 min 0 W/m 6,4 km/h (2 Bft) 91,49 %
25.09.2022 06:52 11,5 C 11,1 C 7,8 C 95 % 1014,8 hPa 0,0 l/m 0 min 0 min 0 W/m 3,2 km/h (1 Bft) 97,87 %
25.09.2022 06:54 11,6 C 11,1 C 7,8 C 95 % 1014,8 hPa 0,0 l/m 0 min 0 min 0 W/m 6,4 km/h (2 Bft) 94,59 %
25.09.2022 06:56 11,5 C 11,1 C 7,8 C 95 % 1014,8 hPa 0,0 l/m 0 min 0 min 0 W/m 6,4 km/h (2 Bft) 93,75 %
25.09.2022 06:58 11,5 C 10,6 C 7,8 C 95 % 1014,7 hPa 0,0 l/m 0 min 0 min 0 W/m 3,2 km/h (1 Bft) 95,74 %
25.09.2022 07:00 11,5 C 11,1 C 7,8 C 95 % 1014,8 hPa 0,0 l/m 0 min 0 min 0 W/m 3,2 km/h (1 Bft) 97,87 %
25.09.2022 07:02 11,5 C 11,1 C 7,8 C 95 % 1014,8 hPa 0,0 l/m 0 min 0 min 0 W/m 3,2 km/h (1 Bft) 95,74 %
25.09.2022 07:04 11,5 C 10,6 C 7,8 C 95 % 1014,8 hPa 0,0 l/m 0 min 0 min 0 W/m 6,4 km/h (2 Bft) 93,48 %
25.09.2022 07:06 11,4 C 10,6 C 7,8 C 94 % 1014,8 hPa 0,0 l/m 0 min 0 min 0 W/m 6,4 km/h (2 Bft) 94,92 %
25.09.2022 07:08 11,4 C 10,6 C 7,8 C 94 % 1014,9 hPa 0,0 l/m 0 min 0 min 0 W/m 3,2 km/h (1 Bft) 94,29 %
25.09.2022 07:10 11,4 C 10,6 C 7,8 C 94 % 1014,9 hPa 0,0 l/m 0 min 0 min 0 W/m 3,2 km/h (1 Bft) 95,74 %
25.09.2022 07:12 11,4 C 10,6 C 7,8 C 94 % 1014,9 hPa 0,0 l/m 0 min 0 min 0 W/m 6,4 km/h (2 Bft) 97,87 %
25.09.2022 07:14 11,4 C 10,6 C 7,8 C 94 % 1014,9 hPa 0,0 l/m 0 min 0 min 0 W/m 0,0 km/h (0 Bft) 97,87 %
25.09.2022 07:16 11,4 C 10,6 C 7,8 C 94 % 1014,9 hPa 0,0 l/m 0 min 0 min 0 W/m 3,2 km/h (1 Bft) 95,65 %
25.09.2022 07:18 11,4 C 10,6 C 7,8 C 94 % 1014,9 hPa 0,0 l/m 0 min 0 min 0 W/m 6,4 km/h (2 Bft) 95,74 %
25.09.2022 07:20 11,4 C 10,6 C 7,8 C 94 % 1014,9 hPa 0,0 l/m 0 min 0 min 0 W/m 3,2 km/h (1 Bft) 97,87 %
25.09.2022 07:22 11,3 C 10,6 C 7,8 C 94 % 1014,9 hPa 0,0 l/m 0 min 0 min 0 W/m 3,2 km/h (1 Bft) 95,74 %
25.09.2022 07:24 11,4 C 10,6 C 7,8 C 94 % 1014,9 hPa 0,0 l/m 0 min 0 min 0 W/m 3,2 km/h (1 Bft) 97,87 %
25.09.2022 07:26 11,3 C 10,6 C 7,8 C 94 % 1014,9 hPa 0,0 l/m 0 min 0 min 0 W/m 6,4 km/h (2 Bft) 100,00 %
25.09.2022 07:28 11,3 C 10,6 C 7,8 C 94 % 1014,9 hPa 0,0 l/m 0 min 0 min 0 W/m 3,2 km/h (1 Bft) 97,87 %
25.09.2022 07:30 11,3 C 10,6 C 7,8 C 94 % 1014,9 hPa 0,0 l/m 0 min 0 min 0 W/m 3,2 km/h (1 Bft) 95,74 %
25.09.2022 07:32 11,3 C 10,6 C 7,8 C 94 % 1014,9 hPa 0,0 l/m 0 min 0 min 0 W/m 6,4 km/h (2 Bft) 97,87 %
25.09.2022 07:34 11,3 C 10,6 C 7,8 C 94 % 1014,9 hPa 0,0 l/m 0 min 0 min 4 W/m 9,7 km/h (2 Bft) 100,00 %
25.09.2022 07:36 11,3 C 10,6 C 7,8 C 94 % 1015,0 hPa 0,0 l/m 0 min 0 min 5 W/m 6,4 km/h (2 Bft) 95,74 %
25.09.2022 07:38 11,3 C 10,6 C 7,8 C 95 % 1015,0 hPa 0,0 l/m 0 min 0 min 5 W/m 12,9 km/h (3 Bft) 95,65 %
25.09.2022 07:40 11,3 C 10,6 C 7,8 C 95 % 1014,9 hPa 0,0 l/m 0 min 0 min 5 W/m 6,4 km/h (2 Bft) 95,74 %
25.09.2022 07:42 11,3 C 10,6 C 7,8 C 95 % 1014,9 hPa 0,0 l/m 0 min 0 min 7 W/m 6,4 km/h (2 Bft) 100,00 %
25.09.2022 07:44 11,3 C 10,6 C 7,8 C 95 % 1014,9 hPa 0,0 l/m 0 min 0 min 8 W/m 6,4 km/h (2 Bft) 100,00 %
25.09.2022 07:46 11,3 C 10,6 C 7,8 C 95 % 1015,0 hPa 0,0 l/m 0 min 0 min 10 W/m 3,2 km/h (1 Bft) 100,00 %
25.09.2022 07:48 11,3 C 10,6 C 7,8 C 95 % 1014,9 hPa 0,0 l/m 0 min 0 min 11 W/m 9,7 km/h (2 Bft) 100,00 %
25.09.2022 07:50 11,3 C 10,6 C 7,8 C 95 % 1014,9 hPa 0,0 l/m 0 min 0 min 12 W/m 6,4 km/h (2 Bft) 100,00 %
25.09.2022 07:52 11,3 C 10,6 C 7,8 C 95 % 1015,0 hPa 0,0 l/m 0 min 0 min 12 W/m 9,7 km/h (2 Bft) 100,00 %
25.09.2022 07:54 11,3 C 10,6 C 7,8 C 95 % 1015,0 hPa 0,0 l/m 0 min 0 min 13 W/m 3,2 km/h (1 Bft) 100,00 %
25.09.2022 07:56 11,2 C 10,6 C 7,8 C 95 % 1015,0 hPa 0,0 l/m 0 min 0 min 14 W/m 6,4 km/h (2 Bft) 97,87 %
25.09.2022 07:58 11,2 C 10,6 C 7,8 C 95 % 1015,0 hPa 0,0 l/m 0 min 0 min 14 W/m 9,7 km/h (2 Bft) 100,00 %
25.09.2022 08:00 11,2 C 10,6 C 7,8 C 95 % 1015,0 hPa 0,0 l/m 0 min 0 min 14 W/m 6,4 km/h (2 Bft) 95,74 %
25.09.2022 08:02 11,2 C 10,6 C 7,8 C 95 % 1015,0 hPa 0,0 l/m 0 min 0 min 16 W/m 6,4 km/h (2 Bft) 100,00 %
25.09.2022 08:04 11,2 C 10,6 C 7,8 C 94 % 1015,0 hPa 0,0 l/m 0 min 0 min 16 W/m 9,7 km/h (2 Bft) 100,00 %
25.09.2022 08:06 11,1 C 10,6 C 7,2 C 94 % 1015,0 hPa 0,0 l/m 0 min 0 min 16 W/m 9,7 km/h (2 Bft) 100,00 %
25.09.2022 08:08 11,1 C 10,6 C 7,2 C 94 % 1015,0 hPa 0,0 l/m 0 min 0 min 16 W/m 12,9 km/h (3 Bft) 97,87 %
25.09.2022 08:10 11,1 C 10,0 C 7,2 C 94 % 1015,0 hPa 0,0 l/m 0 min 0 min 16 W/m 9,7 km/h (2 Bft) 97,87 %
25.09.2022 08:12 11,1 C 10,0 C 7,2 C 94 % 1015,0 hPa 0,0 l/m 0 min 0 min 16 W/m 9,7 km/h (2 Bft) 97,87 %
25.09.2022 08:14 11,0 C 10,0 C 7,2 C 94 % 1015,0 hPa 0,0 l/m 0 min 0 min 16 W/m 6,4 km/h (2 Bft) 97,83 %
25.09.2022 08:16 11,0 C 10,0 C 7,2 C 94 % 1015,0 hPa 0,0 l/m 0 min 0 min 16 W/m 12,9 km/h (3 Bft) 97,87 %
25.09.2022 08:18 10,9 C 10,0 C 7,2 C 94 % 1015,0 hPa 0,0 l/m 0 min 0 min 16 W/m 9,7 km/h (2 Bft) 97,87 %
25.09.2022 08:20 10,9 C 10,0 C 7,2 C 94 % 1015,0 hPa 0,0 l/m 0 min 0 min 16 W/m 9,7 km/h (2 Bft) 97,87 %
25.09.2022 08:22 10,9 C 10,0 C 7,2 C 94 % 1015,0 hPa 0,0 l/m 0 min 0 min 16 W/m 9,7 km/h (2 Bft) 97,87 %
25.09.2022 08:24 10,9 C 10,0 C 7,2 C 94 % 1015,1 hPa 0,0 l/m 0 min 0 min 16 W/m 6,4 km/h (2 Bft) 97,87 %
25.09.2022 08:26 10,8 C 10,0 C 7,2 C 94 % 1015,1 hPa 0,0 l/m 0 min 0 min 17 W/m 12,9 km/h (3 Bft) 97,83 %
25.09.2022 08:28 10,8 C 10,0 C 7,2 C 94 % 1015,1 hPa 0,0 l/m 0 min 0 min 18 W/m 9,7 km/h (2 Bft) 97,87 %
25.09.2022 08:30 10,8 C 10,0 C 7,2 C 94 % 1015,0 hPa 0,0 l/m 0 min 0 min 18 W/m 9,7 km/h (2 Bft) 93,62 %
25.09.2022 08:32 10,8 C 10,0 C 7,2 C 94 % 1015,1 hPa 0,0 l/m 0 min 0 min 19 W/m 9,7 km/h (2 Bft) 97,87 %
25.09.2022 08:34 10,8 C 10,0 C 7,2 C 94 % 1015,1 hPa 0,0 l/m 0 min 0 min 19 W/m 6,4 km/h (2 Bft) 97,87 %
25.09.2022 08:36 10,8 C 10,0 C 7,2 C 94 % 1015,1 hPa 0,0 l/m 0 min 0 min 20 W/m 6,4 km/h (2 Bft) 97,87 %
25.09.2022 08:38 10,8 C 10,0 C 7,2 C 94 % 1015,1 hPa 0,0 l/m 0 min 0 min 21 W/m 9,7 km/h (2 Bft) 97,83 %
25.09.2022 08:40 10,7 C 10,0 C 7,2 C 94 % 1015,1 hPa 0,0 l/m 0 min 0 min 23 W/m 6,4 km/h (2 Bft) 97,87 %
25.09.2022 08:42 10,7 C 10,0 C 7,2 C 94 % 1015,2 hPa 0,0 l/m 0 min 0 min 25 W/m 6,4 km/h (2 Bft) 97,87 %
25.09.2022 08:44 10,7 C 10,0 C 7,2 C 94 % 1015,1 hPa 0,0 l/m 0 min 0 min 26 W/m 6,4 km/h (2 Bft) 100,00 %
25.09.2022 08:46 10,7 C 10,0 C 7,2 C 94 % 1015,1 hPa 0,0 l/m 0 min 0 min 26 W/m 6,4 km/h (2 Bft) 96,23 %
25.09.2022 08:48 10,7 C 10,0 C 7,2 C 94 % 1015,1 hPa 0,0 l/m 0 min 0 min 26 W/m 9,7 km/h (2 Bft) 97,83 %
25.09.2022 08:50 10,7 C 10,0 C 7,2 C 95 % 1015,1 hPa 0,0 l/m 0 min 0 min 27 W/m 12,9 km/h (3 Bft) 100,00 %
25.09.2022 08:52 10,7 C 10,0 C 7,2 C 95 % 1015,1 hPa 0,0 l/m 0 min 0 min 27 W/m 9,7 km/h (2 Bft) 100,00 %
25.09.2022 08:54 10,7 C 10,0 C 7,2 C 95 % 1015,2 hPa 0,0 l/m 0 min 0 min 24 W/m 9,7 km/h (2 Bft) 97,87 %
25.09.2022 08:56 10,7 C 10,0 C 7,2 C 95 % 1015,2 hPa 0,0 l/m 0 min 0 min 24 W/m 9,7 km/h (2 Bft) 97,87 %
25.09.2022 08:58 10,7 C 10,0 C 7,2 C 95 % 1015,2 hPa 0,0 l/m 0 min 0 min 25 W/m 9,7 km/h (2 Bft) 100,00 %
25.09.2022 09:00 10,7 C 10,6 C 7,2 C 95 % 1015,3 hPa 0,0 l/m 0 min 0 min 27 W/m 6,4 km/h (2 Bft) 100,00 %
25.09.2022 09:02 10,7 C 10,6 C 7,2 C 95 % 1015,3 hPa 0,0 l/m 0 min 0 min 32 W/m 9,7 km/h (2 Bft) 100,00 %
25.09.2022 09:04 10,7 C 10,6 C 7,2 C 95 % 1015,3 hPa 0,0 l/m 0 min 0 min 32 W/m 9,7 km/h (2 Bft) 97,87 %
25.09.2022 09:06 10,8 C 10,6 C 7,2 C 95 % 1015,3 hPa 0,0 l/m 0 min 0 min 33 W/m 9,7 km/h (2 Bft) 97,87 %
25.09.2022 09:08 10,8 C 10,6 C 7,2 C 95 % 1015,3 hPa 0,0 l/m 0 min 0 min 33 W/m 6,4 km/h (2 Bft) 97,87 %
25.09.2022 09:10 10,8 C 10,6 C 7,2 C 95 % 1015,3 hPa 0,0 l/m 0 min 0 min 35 W/m 9,7 km/h (2 Bft) 96,00 %
25.09.2022 09:12 10,8 C 10,6 C 7,8 C 95 % 1015,3 hPa 0,0 l/m 0 min 0 min 32 W/m 12,9 km/h (3 Bft) 97,87 %
25.09.2022 09:14 10,8 C 10,6 C 7,8 C 95 % 1015,3 hPa 0,0 l/m 0 min 0 min 29 W/m 12,9 km/h (3 Bft) 97,83 %
25.09.2022 09:16 10,8 C 10,6 C 7,8 C 95 % 1015,3 hPa 0,0 l/m 0 min 0 min 28 W/m 3,2 km/h (1 Bft) 97,14 %
25.09.2022 09:18 10,9 C 10,6 C 7,8 C 95 % 1015,2 hPa 0,0 l/m 0 min 0 min 29 W/m 6,4 km/h (2 Bft) 97,96 %
25.09.2022 09:20 10,9 C 10,6 C 7,8 C 95 % 1015,3 hPa 0,0 l/m 0 min 0 min 32 W/m 9,7 km/h (2 Bft) 97,87 %
25.09.2022 09:22 10,9 C 10,6 C 7,8 C 95 % 1015,3 hPa 0,0 l/m 0 min 0 min 37 W/m 9,7 km/h (2 Bft) 93,62 %
25.09.2022 09:24 10,9 C 10,6 C 7,8 C 95 % 1015,3 hPa 0,0 l/m 0 min 0 min 37 W/m 6,4 km/h (2 Bft) 97,87 %
25.09.2022 09:26 10,9 C 10,6 C 7,8 C 95 % 1015,3 hPa 0,0 l/m 0 min 0 min 37 W/m 6,4 km/h (2 Bft) 97,83 %
25.09.2022 09:28 11,0 C 11,1 C 7,8 C 95 % 1015,4 hPa 0,0 l/m 0 min 0 min 37 W/m 3,2 km/h (1 Bft) 97,87 %
25.09.2022 09:30 11,1 C 11,1 C 7,8 C 95 % 1015,4 hPa 0,0 l/m 0 min 0 min 37 W/m 12,9 km/h (3 Bft) 97,87 %
25.09.2022 09:32 11,1 C 11,1 C 7,8 C 95 % 1015,4 hPa 0,0 l/m 0 min 0 min 39 W/m 16,1 km/h (3 Bft) 97,87 %
25.09.2022 09:34 11,1 C 11,1 C 7,8 C 95 % 1015,5 hPa 0,0 l/m 0 min 0 min 45 W/m 9,7 km/h (2 Bft) 95,74 %
25.09.2022 09:36 11,2 C 11,1 C 7,8 C 95 % 1015,4 hPa 0,0 l/m 0 min 0 min 43 W/m 6,4 km/h (2 Bft) 96,55 %
25.09.2022 09:38 11,2 C 11,1 C 8,3 C 95 % 1015,4 hPa 0,0 l/m 0 min 0 min 39 W/m 9,7 km/h (2 Bft) 97,22 %
25.09.2022 09:40 11,3 C 11,7 C 8,3 C 95 % 1015,5 hPa 0,0 l/m 0 min 0 min 40 W/m 6,4 km/h (2 Bft) 97,83 %
25.09.2022 09:42 11,3 C 11,7 C 8,3 C 95 % 1015,4 hPa 0,0 l/m 0 min 0 min 41 W/m 9,7 km/h (2 Bft) 97,87 %
25.09.2022 09:44 11,4 C 11,7 C 8,3 C 95 % 1015,5 hPa 0,0 l/m 0 min 0 min 41 W/m 9,7 km/h (2 Bft) 97,87 %
25.09.2022 09:46 11,4 C 11,7 C 8,3 C 94 % 1015,5 hPa 0,0 l/m 0 min 0 min 43 W/m 9,7 km/h (2 Bft) 97,87 %
25.09.2022 09:48 11,5 C 11,7 C 8,3 C 94 % 1015,5 hPa 0,0 l/m 0 min 0 min 56 W/m 16,1 km/h (3 Bft) 97,87 %
25.09.2022 09:50 11,6 C 11,7 C 8,3 C 94 % 1015,5 hPa 0,0 l/m 0 min 0 min 52 W/m 9,7 km/h (2 Bft) 97,83 %
25.09.2022 09:52 11,6 C 11,7 C 8,3 C 94 % 1015,4 hPa 0,0 l/m 0 min 0 min 88 W/m 9,7 km/h (2 Bft) 100,00 %
25.09.2022 09:54 11,7 C 11,7 C 8,3 C 94 % 1015,5 hPa 0,0 l/m 2 min 0 min 331 W/m 16,1 km/h (3 Bft) 97,87 %
25.09.2022 09:56 11,7 C 11,7 C 8,9 C 94 % 1015,4 hPa 0,0 l/m 2 min 0 min 276 W/m 9,7 km/h (2 Bft) 100,00 %
25.09.2022 09:58 11,8 C 11,7 C 8,9 C 94 % 1015,4 hPa 0,0 l/m 2 min 0 min 239 W/m 12,9 km/h (3 Bft) 93,62 %
25.09.2022 10:00 11,8 C 12,2 C 8,9 C 94 % 1015,4 hPa 0,0 l/m 2 min 0 min 244 W/m 3,2 km/h (1 Bft) 93,62 %
25.09.2022 10:02 11,9 C 12,2 C 8,9 C 93 % 1015,4 hPa 0,0 l/m 2 min 0 min 338 W/m 6,4 km/h (2 Bft) 95,65 %
25.09.2022 10:04 11,9 C 12,2 C 8,9 C 93 % 1015,3 hPa 0,0 l/m 2 min 0 min 350 W/m 12,9 km/h (3 Bft) 95,74 %
25.09.2022 10:06 12,1 C 12,2 C 8,9 C 93 % 1015,4 hPa 0,0 l/m 2 min 0 min 334 W/m 9,7 km/h (2 Bft) 95,74 %
25.09.2022 10:08 12,1 C 12,2 C 8,9 C 93 % 1015,4 hPa 0,0 l/m 2 min 0 min 297 W/m 12,9 km/h (3 Bft) 95,74 %
25.09.2022 10:10 12,2 C 12,2 C 8,9 C 93 % 1015,4 hPa 0,0 l/m 2 min 0 min 245 W/m 6,4 km/h (2 Bft) 91,49 %
25.09.2022 10:12 12,2 C 12,2 C 8,9 C 92 % 1015,4 hPa 0,0 l/m 2 min 0 min 207 W/m 6,4 km/h (2 Bft) 95,74 %
25.09.2022 10:14 12,3 C 12,8 C 8,9 C 92 % 1015,4 hPa 0,0 l/m 0 min 0 min 119 W/m 9,7 km/h (2 Bft) 95,65 %
25.09.2022 10:16 12,4 C 12,8 C 8,9 C 92 % 1015,4 hPa 0,0 l/m 0 min 0 min 148 W/m 12,9 km/h (3 Bft) 93,62 %
25.09.2022 10:18 12,4 C 12,8 C 9,4 C 92 % 1015,4 hPa 0,0 l/m 0 min 0 min 170 W/m 12,9 km/h (3 Bft) 95,74 %
25.09.2022 10:20 12,6 C 12,8 C 9,4 C 91 % 1015,5 hPa 0,0 l/m 2 min 0 min 227 W/m 6,4 km/h (2 Bft) 95,74 %
25.09.2022 10:22 12,6 C 12,8 C 9,4 C 91 % 1015,4 hPa 0,0 l/m 0 min 0 min 133 W/m 16,1 km/h (3 Bft) 93,62 %
25.09.2022 10:24 12,7 C 12,8 C 9,4 C 90 % 1015,4 hPa 0,0 l/m 0 min 0 min 51 W/m 16,1 km/h (3 Bft) 95,74 %
25.09.2022 10:26 12,7 C 12,8 C 9,4 C 90 % 1015,4 hPa 0,0 l/m 0 min 0 min 60 W/m 12,9 km/h (3 Bft) 95,65 %
25.09.2022 10:28 12,8 C 12,8 C 9,4 C 90 % 1015,4 hPa 0,0 l/m 0 min 0 min 72 W/m 9,7 km/h (2 Bft) 95,74 %
25.09.2022 10:30 12,8 C 12,8 C 9,4 C 89 % 1015,4 hPa 0,0 l/m 0 min 0 min 49 W/m 9,7 km/h (2 Bft) 95,74 %
25.09.2022 10:32 12,9 C 13,3 C 9,4 C 89 % 1015,4 hPa 0,0 l/m 0 min 0 min 50 W/m 9,7 km/h (2 Bft) 96,23 %
25.09.2022 10:34 12,9 C 13,3 C 9,4 C 89 % 1015,4 hPa 0,0 l/m 0 min 0 min 71 W/m 16,1 km/h (3 Bft) 97,87 %
25.09.2022 10:36 13,1 C 13,3 C 9,4 C 88 % 1015,4 hPa 0,0 l/m 0 min 0 min 67 W/m 12,9 km/h (3 Bft) 95,65 %
25.09.2022 10:38 13,2 C 13,3 C 9,4 C 88 % 1015,4 hPa 0,0 l/m 0 min 0 min 55 W/m 3,2 km/h (1 Bft) 97,87 %
25.09.2022 10:40 13,2 C 13,3 C 10,0 C 87 % 1015,4 hPa 0,0 l/m 0 min 0 min 58 W/m 25,7 km/h (4 Bft) 100,00 %
25.09.2022 10:42 13,3 C 13,3 C 10,0 C 86 % 1015,4 hPa 0,0 l/m 0 min 0 min 54 W/m 9,7 km/h (2 Bft) 100,00 %
25.09.2022 10:44 13,4 C 13,3 C 10,0 C 86 % 1015,4 hPa 0,0 l/m 0 min 0 min 120 W/m 12,9 km/h (3 Bft) 100,00 %
25.09.2022 10:46 13,4 C 13,3 C 10,0 C 85 % 1015,4 hPa 0,0 l/m 0 min 0 min 171 W/m 9,7 km/h (2 Bft) 100,00 %
25.09.2022 10:48 13,5 C 13,3 C 10,0 C 85 % 1015,4 hPa 0,0 l/m 0 min 0 min 188 W/m 12,9 km/h (3 Bft) 97,83 %
25.09.2022 10:50 13,6 C 13,3 C 10,0 C 84 % 1015,4 hPa 0,0 l/m 0 min 0 min 77 W/m 19,3 km/h (3 Bft) 100,00 %
25.09.2022 10:52 13,6 C 13,9 C 10,0 C 84 % 1015,4 hPa 0,0 l/m 0 min 0 min 73 W/m 16,1 km/h (3 Bft) 97,87 %
25.09.2022 10:54 13,7 C 13,9 C 10,0 C 84 % 1015,4 hPa 0,0 l/m 0 min 0 min 72 W/m 12,9 km/h (3 Bft) 97,87 %
25.09.2022 10:56 13,7 C 13,9 C 10,0 C 84 % 1015,3 hPa 0,0 l/m 0 min 0 min 98 W/m 6,4 km/h (2 Bft) 100,00 %
25.09.2022 10:58 13,8 C 13,9 C 10,0 C 83 % 1015,4 hPa 0,0 l/m 0 min 0 min 82 W/m 16,1 km/h (3 Bft) 100,00 %
25.09.2022 11:00 13,8 C 13,9 C 10,6 C 82 % 1015,4 hPa 0,0 l/m 0 min 0 min 71 W/m 19,3 km/h (3 Bft) 100,00 %
25.09.2022 11:02 13,9 C 13,9 C 10,6 C 82 % 1015,4 hPa 0,0 l/m 0 min 0 min 80 W/m 12,9 km/h (3 Bft) 100,00 %
25.09.2022 11:04 14,1 C 14,4 C 10,6 C 82 % 1015,4 hPa 0,0 l/m 0 min 0 min 138 W/m 9,7 km/h (2 Bft) 100,00 %
25.09.2022 11:06 14,1 C 14,4 C 10,6 C 82 % 1015,4 hPa 0,0 l/m 0 min 0 min 203 W/m 12,9 km/h (3 Bft) 100,00 %
25.09.2022 11:08 14,1 C 14,4 C 10,6 C 81 % 1015,4 hPa 0,0 l/m 0 min 0 min 120 W/m 12,9 km/h (3 Bft) 100,00 %
25.09.2022 11:10 14,2 C 15,0 C 10,6 C 81 % 1015,5 hPa 0,0 l/m 0 min 0 min 103 W/m 12,9 km/h (3 Bft) 100,00 %
25.09.2022 11:12 14,3 C 15,0 C 10,6 C 81 % 1015,4 hPa 0,0 l/m 0 min 0 min 76 W/m 19,3 km/h (3 Bft) 100,00 %
25.09.2022 11:14 14,3 C 16,1 C 10,6 C 81 % 1015,4 hPa 0,0 l/m 0 min 0 min 107 W/m 9,7 km/h (2 Bft) 100,00 %
25.09.2022 11:16 14,3 C 17,2 C 11,1 C 81 % 1015,4 hPa 0,0 l/m 0 min 0 min 122 W/m 12,9 km/h (3 Bft) 100,00 %
25.09.2022 11:18 14,3 C 17,2 C 11,1 C 80 % 1015,4 hPa 0,0 l/m 0 min 0 min 118 W/m 16,1 km/h (3 Bft) 100,00 %
25.09.2022 11:20 14,3 C 17,2 C 11,1 C 79 % 1015,4 hPa 0,0 l/m 0 min 0 min 116 W/m 12,9 km/h (3 Bft) 100,00 %
25.09.2022 11:22 14,3 C 17,8 C 11,1 C 79 % 1015,4 hPa 0,0 l/m 0 min 0 min 119 W/m 6,4 km/h (2 Bft) 100,00 %
25.09.2022 11:24 14,4 C 18,3 C 11,7 C 79 % 1015,4 hPa 0,0 l/m 0 min 0 min 146 W/m 9,7 km/h (2 Bft) 100,00 %
25.09.2022 11:26 14,5 C 18,3 C 12,2 C 79 % 1015,4 hPa 0,0 l/m 2 min 0 min 338 W/m 16,1 km/h (3 Bft) 100,00 %
25.09.2022 11:28 14,6 C 18,3 C 12,8 C 79 % 1015,4 hPa 0,0 l/m 0 min 0 min 175 W/m 9,7 km/h (2 Bft) 100,00 %
25.09.2022 11:30 14,7 C 19,4 C 13,9 C 79 % 1015,4 hPa 0,0 l/m 0 min 0 min 131 W/m 9,7 km/h (2 Bft) 97,87 %
25.09.2022 11:32 14,7 C 19,4 C 14,4 C 79 % 1015,4 hPa 0,0 l/m 0 min 0 min 132 W/m 6,4 km/h (2 Bft) 100,00 %
25.09.2022 11:34 14,8 C 18,9 C 15,0 C 78 % 1015,4 hPa 0,0 l/m 0 min 0 min 192 W/m 16,1 km/h (3 Bft) 100,00 %
25.09.2022 11:36 14,9 C 20,0 C 15,6 C 79 % 1015,3 hPa 0,0 l/m 2 min 0 min 300 W/m 6,4 km/h (2 Bft) 100,00 %
25.09.2022 11:38 15,1 C 19,4 C 16,1 C 78 % 1015,4 hPa 0,0 l/m 2 min 0 min 617 W/m 12,9 km/h (3 Bft) 100,00 %
25.09.2022 11:40 15,1 C 18,3 C 16,7 C 77 % 1015,4 hPa 0,0 l/m 2 min 0 min 663 W/m 6,4 km/h (2 Bft) 100,00 %
25.09.2022 11:42 15,2 C 17,8 C 16,7 C 77 % 1015,3 hPa 0,0 l/m 2 min 0 min 679 W/m 9,7 km/h (2 Bft) 100,00 %
25.09.2022 11:44 15,3 C 17,2 C 16,7 C 77 % 1015,3 hPa 0,0 l/m 2 min 0 min 679 W/m 16,1 km/h (3 Bft) 97,87 %
25.09.2022 11:46 15,3 C 16,7 C 15,0 C 77 % 1015,2 hPa 0,0 l/m 2 min 0 min 508 W/m 9,7 km/h (2 Bft) 100,00 %
25.09.2022 11:48 15,3 C 16,1 C 13,3 C 76 % 1015,4 hPa 0,0 l/m 0 min 0 min 91 W/m 12,9 km/h (3 Bft) 100,00 %
25.09.2022 11:50 15,3 C 16,1 C 13,3 C 76 % 1015,3 hPa 0,0 l/m 0 min 0 min 186 W/m 12,9 km/h (3 Bft) 100,00 %
25.09.2022 11:52 15,3 C 16,7 C 14,4 C 76 % 1015,3 hPa 0,0 l/m 2 min 0 min 671 W/m 9,7 km/h (2 Bft) 97,87 %
25.09.2022 11:54 15,3 C 17,8 C 15,6 C 76 % 1015,3 hPa 0,0 l/m 2 min 0 min 685 W/m 6,4 km/h (2 Bft) 100,00 %
25.09.2022 11:56 15,4 C 18,3 C 15,6 C 75 % 1015,3 hPa 0,0 l/m 2 min 0 min 711 W/m 12,9 km/h (3 Bft) 100,00 %
25.09.2022 11:58 15,5 C 18,9 C 15,6 C 74 % 1015,3 hPa 0,0 l/m 2 min 0 min 751 W/m 9,7 km/h (2 Bft) 100,00 %
25.09.2022 12:00 15,6 C 18,9 C 15,0 C 73 % 1015,3 hPa 0,0 l/m 2 min 0 min 787 W/m 9,7 km/h (2 Bft) 97,83 %
25.09.2022 12:02 15,7 C 19,4 C 15,0 C 73 % 1015,3 hPa 0,0 l/m 2 min 0 min 787 W/m 6,4 km/h (2 Bft) 95,83 %
25.09.2022 12:04 15,8 C 20,6 C 15,0 C 73 % 1015,2 hPa 0,0 l/m 2 min 0 min 769 W/m 6,4 km/h (2 Bft) 97,87 %
25.09.2022 12:08 16,0 C 20,0 C 13,9 C 75 % 1015,3 hPa 0,0 l/m 4 min 0 min 750 W/m 16,1 km/h (3 Bft) 96,88 %
25.09.2022 12:10 16,1 C 17,8 C 13,3 C 75 % 1015,3 hPa 0,0 l/m 2 min 0 min 291 W/m 19,3 km/h (3 Bft) 95,65 %
25.09.2022 12:12 15,9 C 16,7 C 12,2 C 74 % 1015,3 hPa 0,0 l/m 0 min 0 min 146 W/m 19,3 km/h (3 Bft) 100,00 %
25.09.2022 12:14 15,8 C 15,6 C 12,2 C 74 % 1015,3 hPa 0,0 l/m 0 min 0 min 145 W/m 12,9 km/h (3 Bft) 95,74 %
25.09.2022 12:16 15,7 C 15,6 C 11,7 C 74 % 1015,3 hPa 0,0 l/m 0 min 0 min 138 W/m 16,1 km/h (3 Bft) 97,87 %
25.09.2022 12:18 15,6 C 15,0 C 11,7 C 75 % 1015,2 hPa 0,0 l/m 0 min 0 min 135 W/m 16,1 km/h (3 Bft) 97,87 %
25.09.2022 12:20 15,4 C 14,4 C 11,1 C 75 % 1015,3 hPa 0,0 l/m 0 min 0 min 134 W/m 9,7 km/h (2 Bft) 95,74 %
25.09.2022 12:22 15,3 C 14,4 C 11,1 C 75 % 1015,3 hPa 0,0 l/m 0 min 0 min 131 W/m 12,9 km/h (3 Bft) 93,48 %
25.09.2022 12:24 15,2 C 14,4 C 11,1 C 76 % 1015,2 hPa 0,0 l/m 0 min 0 min 125 W/m 19,3 km/h (3 Bft) 95,74 %
25.09.2022 12:26 15,1 C 15,6 C 11,1 C 76 % 1015,2 hPa 0,0 l/m 0 min 0 min 155 W/m 16,1 km/h (3 Bft) 95,74 %
25.09.2022 12:28 15,1 C 16,1 C 11,1 C 76 % 1015,1 hPa 0,0 l/m 0 min 0 min 212 W/m 19,3 km/h (3 Bft) 93,62 %
25.09.2022 12:30 15,2 C 16,1 C 11,7 C 75 % 1015,1 hPa 0,0 l/m 0 min 0 min 168 W/m 19,3 km/h (3 Bft) 94,29 %
25.09.2022 12:32 15,3 C 16,1 C 11,7 C 75 % 1015,2 hPa 0,0 l/m 0 min 0 min 153 W/m 16,1 km/h (3 Bft) 95,83 %
25.09.2022 12:34 15,4 C 16,7 C 11,7 C 74 % 1015,2 hPa 0,0 l/m 0 min 0 min 162 W/m 16,1 km/h (3 Bft) 91,49 %
25.09.2022 12:36 15,6 C 16,1 C 11,7 C 74 % 1015,2 hPa 0,0 l/m 0 min 0 min 198 W/m 12,9 km/h (3 Bft) 94,83 %
25.09.2022 12:38 15,6 C 16,7 C 12,2 C 73 % 1015,1 hPa 0,0 l/m 0 min 0 min 252 W/m 6,4 km/h (2 Bft) 100,00 %
25.09.2022 12:40 15,7 C 16,1 C 12,2 C 72 % 1015,2 hPa 0,0 l/m 0 min 0 min 260 W/m 12,9 km/h (3 Bft) 93,62 %
25.09.2022 12:42 15,7 C 16,1 C 11,7 C 72 % 1015,2 hPa 0,0 l/m 0 min 0 min 199 W/m 6,4 km/h (2 Bft) 95,83 %
25.09.2022 12:44 15,8 C 16,1 C 11,7 C 73 % 1015,2 hPa 0,0 l/m 0 min 0 min 141 W/m 16,1 km/h (3 Bft) 95,74 %
25.09.2022 12:46 15,8 C 15,6 C 11,7 C 72 % 1015,2 hPa 0,0 l/m 0 min 0 min 114 W/m 16,1 km/h (3 Bft) 93,62 %
25.09.2022 12:48 15,7 C 15,6 C 11,7 C 72 % 1015,1 hPa 0,0 l/m 0 min 0 min 104 W/m 22,5 km/h (4 Bft) 96,00 %
25.09.2022 12:50 15,6 C 15,0 C 11,1 C 72 % 1015,2 hPa 0,0 l/m 0 min 0 min 108 W/m 22,5 km/h (4 Bft) 93,48 %
25.09.2022 12:52 15,6 C 15,0 C 11,1 C 72 % 1015,2 hPa 0,0 l/m 0 min 0 min 121 W/m 16,1 km/h (3 Bft) 95,74 %
25.09.2022 12:54 15,4 C 14,4 C 11,1 C 72 % 1015,2 hPa 0,0 l/m 0 min 0 min 137 W/m 16,1 km/h (3 Bft) 95,74 %
25.09.2022 12:56 15,3 C 14,4 C 11,1 C 73 % 1015,2 hPa 0,0 l/m 0 min 0 min 175 W/m 12,9 km/h (3 Bft) 95,74 %
25.09.2022 12:58 15,3 C 15,0 C 11,1 C 73 % 1015,2 hPa 0,0 l/m 0 min 0 min 222 W/m 16,1 km/h (3 Bft) 95,74 %
25.09.2022 13:00 15,3 C 15,6 C 11,7 C 73 % 1015,1 hPa 0,0 l/m 0 min 0 min 251 W/m 12,9 km/h (3 Bft) 95,65 %
25.09.2022 13:02 15,4 C 16,1 C 11,7 C 73 % 1015,1 hPa 0,0 l/m 0 min 0 min 243 W/m 16,1 km/h (3 Bft) 95,74 %
25.09.2022 13:04 15,4 C 16,1 C 11,7 C 73 % 1015,1 hPa 0,0 l/m 0 min 0 min 214 W/m 16,1 km/h (3 Bft) 93,62 %
25.09.2022 13:06 15,5 C 15,6 C 11,7 C 72 % 1015,1 hPa 0,0 l/m 0 min 0 min 176 W/m 12,9 km/h (3 Bft) 97,87 %
25.09.2022 13:08 15,4 C 15,6 C 11,7 C 72 % 1015,1 hPa 0,0 l/m 0 min 0 min 144 W/m 6,4 km/h (2 Bft) 89,36 %
25.09.2022 13:10 15,4 C 15,6 C 11,1 C 71 % 1015,1 hPa 0,0 l/m 0 min 0 min 104 W/m 9,7 km/h (2 Bft) 95,74 %
25.09.2022 13:12 15,4 C 15,0 C 11,1 C 71 % 1015,1 hPa 0,0 l/m 0 min 0 min 79 W/m 22,5 km/h (4 Bft) 95,65 %
25.09.2022 13:14 15,3 C 15,0 C 11,1 C 71 % 1015,1 hPa 0,0 l/m 0 min 0 min 76 W/m 6,4 km/h (2 Bft) 97,87 %
25.09.2022 13:16 15,3 C 15,0 C 11,1 C 71 % 1015,1 hPa 0,0 l/m 0 min 0 min 70 W/m 3,2 km/h (1 Bft) 95,74 %
25.09.2022 13:18 15,4 C 15,6 C 11,1 C 72 % 1015,1 hPa 0,0 l/m 0 min 0 min 72 W/m 3,2 km/h (1 Bft) 95,74 %
25.09.2022 13:20 15,4 C 15,6 C 11,1 C 73 % 1015,1 hPa 0,0 l/m 0 min 0 min 78 W/m 9,7 km/h (2 Bft) 97,87 %
25.09.2022 13:22 15,5 C 15,6 C 11,7 C 73 % 1015,0 hPa 0,0 l/m 0 min 0 min 84 W/m 9,7 km/h (2 Bft) 97,87 %
25.09.2022 13:24 15,6 C 16,1 C 11,7 C 73 % 1015,0 hPa 0,0 l/m 0 min 0 min 127 W/m 9,7 km/h (2 Bft) 95,65 %
25.09.2022 13:26 15,7 C 16,1 C 11,7 C 72 % 1015,0 hPa 0,0 l/m 0 min 0 min 140 W/m 16,1 km/h (3 Bft) 100,00 %
25.09.2022 13:28 15,7 C 16,1 C 11,7 C 72 % 1015,0 hPa 0,0 l/m 0 min 0 min 131 W/m 12,9 km/h (3 Bft) 100,00 %
25.09.2022 13:30 15,8 C 16,1 C 12,2 C 70 % 1015,0 hPa 0,0 l/m 0 min 0 min 130 W/m 19,3 km/h (3 Bft) 100,00 %
25.09.2022 13:32 15,9 C 16,1 C 11,7 C 68 % 1015,0 hPa 0,0 l/m 0 min 0 min 129 W/m 25,7 km/h (4 Bft) 100,00 %
25.09.2022 13:34 15,9 C 15,6 C 11,7 C 67 % 1015,0 hPa 0,0 l/m 0 min 0 min 137 W/m 19,3 km/h (3 Bft) 100,00 %
25.09.2022 13:36 16,0 C 16,1 C 11,7 C 68 % 1014,9 hPa 0,0 l/m 0 min 0 min 121 W/m 9,7 km/h (2 Bft) 97,83 %
25.09.2022 13:38 16,0 C 16,1 C 11,7 C 67 % 1014,9 hPa 0,0 l/m 0 min 0 min 148 W/m 12,9 km/h (3 Bft) 100,00 %
25.09.2022 13:40 16,1 C 16,1 C 11,7 C 67 % 1014,9 hPa 0,0 l/m 0 min 0 min 175 W/m 16,1 km/h (3 Bft) 100,00 %
25.09.2022 13:42 16,1 C 16,1 C 12,2 C 67 % 1014,9 hPa 0,0 l/m 0 min 0 min 107 W/m 12,9 km/h (3 Bft) 100,00 %
25.09.2022 13:44 16,2 C 16,1 C 12,2 C 67 % 1014,9 hPa 0,0 l/m 2 min 0 min 377 W/m 12,9 km/h (3 Bft) 100,00 %
25.09.2022 13:46 16,3 C 16,7 C 12,2 C 66 % 1014,9 hPa 0,0 l/m 2 min 0 min 519 W/m 9,7 km/h (2 Bft) 100,00 %
25.09.2022 13:48 16,4 C 16,7 C 12,2 C 67 % 1014,9 hPa 0,0 l/m 2 min 0 min 666 W/m 19,3 km/h (3 Bft) 100,00 %
25.09.2022 13:50 16,5 C 17,2 C 12,2 C 68 % 1014,9 hPa 0,0 l/m 2 min 0 min 526 W/m 16,1 km/h (3 Bft) 100,00 %
25.09.2022 13:52 16,6 C 17,8 C 12,2 C 67 % 1014,8 hPa 0,0 l/m 2 min 0 min 502 W/m 12,9 km/h (3 Bft) 100,00 %
25.09.2022 13:54 16,7 C 18,9 C 12,8 C 68 % 1014,9 hPa 0,0 l/m 2 min 0 min 734 W/m 6,4 km/h (2 Bft) 100,00 %
25.09.2022 13:56 16,8 C 18,3 C 12,8 C 67 % 1014,8 hPa 0,0 l/m 2 min 0 min 522 W/m 6,4 km/h (2 Bft) 97,87 %
25.09.2022 13:58 16,8 C 20,6 C 12,8 C 66 % 1014,9 hPa 0,0 l/m 2 min 0 min 475 W/m 22,5 km/h (4 Bft) 95,74 %
25.09.2022 14:00 16,9 C 21,1 C 12,8 C 66 % 1014,8 hPa 0,0 l/m 2 min 0 min 766 W/m 12,9 km/h (3 Bft) 97,83 %
25.09.2022 14:02 16,9 C 22,8 C 12,8 C 66 % 1014,8 hPa 0,0 l/m 2 min 0 min 750 W/m 12,9 km/h (3 Bft) 97,87 %
25.09.2022 14:04 16,9 C 22,8 C 12,8 C 65 % 1014,8 hPa 0,0 l/m 2 min 0 min 744 W/m 9,7 km/h (2 Bft) 97,87 %
25.09.2022 14:06 16,9 C 22,8 C 12,8 C 65 % 1014,8 hPa 0,0 l/m 2 min 0 min 724 W/m 12,9 km/h (3 Bft) 97,87 %
25.09.2022 14:08 17,0 C 23,9 C 12,8 C 65 % 1014,7 hPa 0,0 l/m 2 min 0 min 719 W/m 9,7 km/h (2 Bft) 97,87 %
25.09.2022 14:10 17,1 C 23,9 C 12,2 C 64 % 1014,7 hPa 0,0 l/m 2 min 0 min 727 W/m 3,2 km/h (1 Bft) 97,83 %
25.09.2022 14:12 17,1 C 24,4 C 12,8 C 64 % 1014,7 hPa 0,0 l/m 2 min 0 min 747 W/m 12,9 km/h (3 Bft) 97,87 %
25.09.2022 14:14 17,2 C 23,9 C 12,8 C 65 % 1014,7 hPa 0,0 l/m 2 min 0 min 780 W/m 6,4 km/h (2 Bft) 97,87 %
25.09.2022 14:16 17,3 C 22,2 C 12,8 C 65 % 1014,6 hPa 0,0 l/m 2 min 0 min 784 W/m 19,3 km/h (3 Bft) 97,87 %
25.09.2022 14:18 17,3 C 20,0 C 12,8 C 64 % 1014,6 hPa 0,0 l/m 2 min 0 min 314 W/m 19,3 km/h (3 Bft) 97,14 %
25.09.2022 14:20 17,2 C 17,8 C 12,2 C 64 % 1014,7 hPa 0,0 l/m 0 min 0 min 104 W/m 12,9 km/h (3 Bft) 98,31 %
25.09.2022 14:22 17,1 C 17,2 C 12,2 C 64 % 1014,6 hPa 0,0 l/m 0 min 0 min 111 W/m 12,9 km/h (3 Bft) 97,83 %
25.09.2022 14:24 16,9 C 16,7 C 11,7 C 64 % 1014,6 hPa 0,0 l/m 0 min 0 min 113 W/m 12,9 km/h (3 Bft) 97,87 %
25.09.2022 14:26 16,7 C 16,1 C 11,7 C 65 % 1014,6 hPa 0,0 l/m 0 min 0 min 107 W/m 6,4 km/h (2 Bft) 97,14 %
25.09.2022 14:28 16,6 C 15,6 C 11,7 C 66 % 1014,6 hPa 0,0 l/m 0 min 0 min 113 W/m 9,7 km/h (2 Bft) 98,31 %
25.09.2022 14:30 16,4 C 15,6 C 11,7 C 67 % 1014,7 hPa 0,0 l/m 0 min 0 min 114 W/m 12,9 km/h (3 Bft) 97,87 %
25.09.2022 14:32 16,3 C 15,6 C 11,7 C 67 % 1014,7 hPa 0,0 l/m 0 min 0 min 101 W/m 9,7 km/h (2 Bft) 97,87 %
25.09.2022 14:34 16,2 C 15,6 C 11,7 C 68 % 1014,6 hPa 0,0 l/m 0 min 0 min 95 W/m 9,7 km/h (2 Bft) 93,48 %
25.09.2022 14:36 16,2 C 16,1 C 11,1 C 69 % 1014,6 hPa 0,0 l/m 2 min 0 min 294 W/m 9,7 km/h (2 Bft) 95,74 %
25.09.2022 14:38 16,2 C 16,7 C 11,7 C 69 % 1014,5 hPa 0,0 l/m 2 min 0 min 646 W/m 6,4 km/h (2 Bft) 97,87 %
25.09.2022 14:40 16,2 C 16,7 C 11,7 C 69 % 1014,4 hPa 0,0 l/m 2 min 0 min 669 W/m 12,9 km/h (3 Bft) 100,00 %
25.09.2022 14:42 16,3 C 17,2 C 11,7 C 69 % 1014,4 hPa 0,0 l/m 2 min 0 min 661 W/m 6,4 km/h (2 Bft) 100,00 %
25.09.2022 14:44 16,4 C 17,2 C 11,7 C 68 % 1014,3 hPa 0,0 l/m 2 min 0 min 655 W/m 6,4 km/h (2 Bft) 100,00 %
25.09.2022 14:46 16,6 C 17,2 C 12,2 C 68 % 1014,3 hPa 0,0 l/m 2 min 0 min 660 W/m 3,2 km/h (1 Bft) 100,00 %
25.09.2022 14:48 16,7 C 17,8 C 12,2 C 68 % 1014,3 hPa 0,0 l/m 2 min 0 min 661 W/m 12,9 km/h (3 Bft) 100,00 %
25.09.2022 14:50 16,8 C 18,3 C 12,2 C 65 % 1014,3 hPa 0,0 l/m 2 min 0 min 665 W/m 9,7 km/h (2 Bft) 100,00 %
25.09.2022 14:52 17,0 C 18,3 C 12,2 C 65 % 1014,3 hPa 0,0 l/m 2 min 0 min 675 W/m 16,1 km/h (3 Bft) 100,00 %
25.09.2022 14:54 17,2 C 18,3 C 12,8 C 64 % 1014,3 hPa 0,0 l/m 2 min 0 min 697 W/m 12,9 km/h (3 Bft) 100,00 %
25.09.2022 14:56 17,3 C 18,3 C 12,8 C 63 % 1014,3 hPa 0,0 l/m 2 min 0 min 747 W/m 9,7 km/h (2 Bft) 100,00 %
25.09.2022 14:58 17,4 C 18,3 C 12,8 C 63 % 1014,2 hPa 0,0 l/m 2 min 0 min 571 W/m 6,4 km/h (2 Bft) 100,00 %
25.09.2022 15:00 17,6 C 18,3 C 12,8 C 61 % 1014,2 hPa 0,0 l/m 2 min 0 min 621 W/m 6,4 km/h (2 Bft) 100,00 %
25.09.2022 15:02 17,6 C 17,8 C 12,8 C 61 % 1014,1 hPa 0,0 l/m 0 min 0 min 231 W/m 9,7 km/h (2 Bft) 100,00 %
25.09.2022 15:04 17,6 C 17,8 C 12,8 C 62 % 1014,2 hPa 0,0 l/m 0 min 0 min 228 W/m 19,3 km/h (3 Bft) 97,87 %
25.09.2022 15:06 17,5 C 17,2 C 12,8 C 62 % 1014,2 hPa 0,0 l/m 0 min 0 min 272 W/m 16,1 km/h (3 Bft) 96,61 %
25.09.2022 15:08 17,5 C 17,2 C 12,8 C 63 % 1014,2 hPa 0,0 l/m 2 min 0 min 522 W/m 12,9 km/h (3 Bft) 97,14 %
25.09.2022 15:10 17,3 C 16,7 C 12,8 C 63 % 1014,2 hPa 0,0 l/m 2 min 0 min 274 W/m 9,7 km/h (2 Bft) 97,87 %
25.09.2022 15:12 17,2 C 16,7 C 12,2 C 64 % 1014,2 hPa 0,0 l/m 0 min 0 min 123 W/m 16,1 km/h (3 Bft) 95,74 %
25.09.2022 15:14 17,1 C 16,1 C 12,2 C 64 % 1014,1 hPa 0,0 l/m 0 min 0 min 86 W/m 16,1 km/h (3 Bft) 97,83 %
25.09.2022 15:16 16,9 C 16,1 C 11,7 C 65 % 1014,2 hPa 0,0 l/m 0 min 0 min 78 W/m 6,4 km/h (2 Bft) 95,74 %
25.09.2022 15:18 16,7 C 15,6 C 11,7 C 66 % 1014,1 hPa 0,0 l/m 0 min 0 min 82 W/m 12,9 km/h (3 Bft) 95,74 %
25.09.2022 15:20 16,6 C 16,1 C 11,7 C 67 % 1014,1 hPa 0,0 l/m 0 min 0 min 135 W/m 12,9 km/h (3 Bft) 97,87 %
25.09.2022 15:22 16,6 C 16,7 C 11,7 C 68 % 1014,1 hPa 0,0 l/m 2 min 0 min 552 W/m 9,7 km/h (2 Bft) 95,74 %
25.09.2022 15:24 16,6 C 17,2 C 11,7 C 69 % 1014,1 hPa 0,0 l/m 2 min 0 min 404 W/m 6,4 km/h (2 Bft) 95,74 %
25.09.2022 15:26 16,7 C 17,2 C 12,2 C 68 % 1014,1 hPa 0,0 l/m 2 min 0 min 573 W/m 9,7 km/h (2 Bft) 95,65 %
25.09.2022 15:28 16,7 C 17,2 C 12,2 C 68 % 1014,1 hPa 0,0 l/m 2 min 0 min 590 W/m 12,9 km/h (3 Bft) 97,87 %
25.09.2022 15:30 16,8 C 16,7 C 12,2 C 68 % 1014,0 hPa 0,0 l/m 2 min 0 min 592 W/m 19,3 km/h (3 Bft) 95,74 %
25.09.2022 15:32 16,8 C 17,2 C 12,2 C 68 % 1014,0 hPa 0,0 l/m 2 min 0 min 589 W/m 16,1 km/h (3 Bft) 97,87 %
25.09.2022 15:34 16,9 C 17,2 C 12,2 C 68 % 1014,0 hPa 0,0 l/m 2 min 0 min 570 W/m 12,9 km/h (3 Bft) 95,74 %
25.09.2022 15:36 16,9 C 17,2 C 12,2 C 67 % 1014,0 hPa 0,0 l/m 2 min 0 min 564 W/m 6,4 km/h (2 Bft) 96,55 %
25.09.2022 15:38 16,9 C 16,7 C 12,2 C 67 % 1014,0 hPa 0,0 l/m 2 min 0 min 560 W/m 6,4 km/h (2 Bft) 94,29 %
25.09.2022 15:40 16,9 C 16,7 C 12,2 C 67 % 1013,9 hPa 0,0 l/m 2 min 0 min 552 W/m 12,9 km/h (3 Bft) 97,87 %
25.09.2022 15:42 17,0 C 16,7 C 12,2 C 67 % 1013,9 hPa 0,0 l/m 2 min 0 min 555 W/m 6,4 km/h (2 Bft) 95,74 %
25.09.2022 15:44 17,0 C 16,7 C 12,2 C 66 % 1013,9 hPa 0,0 l/m 2 min 0 min 555 W/m 9,7 km/h (2 Bft) 97,87 %
25.09.2022 15:46 17,1 C 16,7 C 12,2 C 66 % 1013,9 hPa 0,0 l/m 2 min 0 min 552 W/m 9,7 km/h (2 Bft) 97,87 %
25.09.2022 15:48 17,1 C 16,7 C 12,2 C 66 % 1013,9 hPa 0,0 l/m 2 min 0 min 550 W/m 9,7 km/h (2 Bft) 97,87 %
25.09.2022 15:50 17,2 C 16,7 C 12,2 C 66 % 1013,9 hPa 0,0 l/m 2 min 0 min 544 W/m 9,7 km/h (2 Bft) 97,83 %
25.09.2022 15:52 17,2 C 16,7 C 12,2 C 65 % 1013,9 hPa 0,0 l/m 2 min 0 min 540 W/m 6,4 km/h (2 Bft) 97,87 %
25.09.2022 15:54 17,3 C 16,7 C 12,2 C 65 % 1013,9 hPa 0,0 l/m 2 min 0 min 536 W/m 16,1 km/h (3 Bft) 97,87 %
25.09.2022 15:56 17,3 C 16,7 C 12,8 C 64 % 1013,9 hPa 0,0 l/m 2 min 0 min 531 W/m 16,1 km/h (3 Bft) 97,87 %
25.09.2022 15:58 17,3 C 16,7 C 12,8 C 63 % 1013,8 hPa 0,0 l/m 2 min 0 min 527 W/m 12,9 km/h (3 Bft) 97,87 %
25.09.2022 16:00 17,3 C 16,7 C 12,8 C 64 % 1013,9 hPa 0,0 l/m 2 min 0 min 526 W/m 9,7 km/h (2 Bft) 95,74 %
25.09.2022 16:02 17,4 C 16,7 C 12,8 C 65 % 1013,7 hPa 0,0 l/m 2 min 0 min 521 W/m 9,7 km/h (2 Bft) 97,83 %
25.09.2022 16:04 17,4 C 17,2 C 12,8 C 65 % 1013,7 hPa 0,0 l/m 2 min 0 min 516 W/m 16,1 km/h (3 Bft) 97,87 %
25.09.2022 16:06 17,5 C 16,7 C 12,8 C 64 % 1013,7 hPa 0,0 l/m 2 min 0 min 514 W/m 16,1 km/h (3 Bft) 98,31 %
25.09.2022 16:08 17,5 C 16,7 C 12,8 C 64 % 1013,7 hPa 0,0 l/m 2 min 0 min 515 W/m 12,9 km/h (3 Bft) 97,14 %
25.09.2022 16:10 17,6 C 16,7 C 12,8 C 65 % 1013,7 hPa 0,0 l/m 2 min 0 min 512 W/m 12,9 km/h (3 Bft) 97,87 %
25.09.2022 16:12 17,6 C 16,7 C 12,8 C 64 % 1013,7 hPa 0,0 l/m 2 min 0 min 498 W/m 19,3 km/h (3 Bft) 97,87 %
25.09.2022 16:14 17,6 C 16,7 C 12,8 C 64 % 1013,7 hPa 0,0 l/m 2 min 0 min 500 W/m 12,9 km/h (3 Bft) 97,83 %
25.09.2022 16:16 17,6 C 16,7 C 12,8 C 65 % 1013,7 hPa 0,0 l/m 2 min 0 min 492 W/m 12,9 km/h (3 Bft) 97,87 %
25.09.2022 16:18 17,6 C 16,7 C 12,8 C 64 % 1013,7 hPa 0,0 l/m 2 min 0 min 468 W/m 9,7 km/h (2 Bft) 97,87 %
25.09.2022 16:20 17,5 C 16,7 C 12,8 C 64 % 1013,7 hPa 0,0 l/m 2 min 0 min 456 W/m 12,9 km/h (3 Bft) 97,87 %
25.09.2022 16:22 17,5 C 16,7 C 12,8 C 63 % 1013,7 hPa 0,0 l/m 2 min 0 min 457 W/m 12,9 km/h (3 Bft) 97,87 %
25.09.2022 16:24 17,5 C 16,7 C 12,8 C 62 % 1013,7 hPa 0,0 l/m 2 min 0 min 475 W/m 12,9 km/h (3 Bft) 97,87 %
25.09.2022 16:26 17,4 C 17,2 C 12,8 C 62 % 1013,6 hPa 0,0 l/m 2 min 0 min 473 W/m 9,7 km/h (2 Bft) 97,83 %
25.09.2022 16:28 17,4 C 17,2 C 12,8 C 62 % 1013,6 hPa 0,0 l/m 2 min 0 min 472 W/m 6,4 km/h (2 Bft) 97,87 %
25.09.2022 16:30 17,4 C 17,2 C 12,8 C 63 % 1013,6 hPa 0,0 l/m 2 min 0 min 461 W/m 9,7 km/h (2 Bft) 95,74 %
25.09.2022 16:32 17,4 C 16,7 C 12,8 C 64 % 1013,6 hPa 0,0 l/m 0 min 0 min 155 W/m 9,7 km/h (2 Bft) 96,23 %
25.09.2022 16:34 17,4 C 16,7 C 12,8 C 64 % 1013,6 hPa 0,0 l/m 0 min 0 min 114 W/m 9,7 km/h (2 Bft) 95,74 %
25.09.2022 16:36 17,4 C 17,2 C 12,8 C 65 % 1013,5 hPa 0,0 l/m 2 min 0 min 435 W/m 6,4 km/h (2 Bft) 98,28 %
25.09.2022 16:38 17,4 C 17,8 C 12,8 C 65 % 1013,5 hPa 0,0 l/m 2 min 0 min 452 W/m 12,9 km/h (3 Bft) 100,00 %
25.09.2022 16:40 17,5 C 18,3 C 12,8 C 65 % 1013,5 hPa 0,0 l/m 2 min 0 min 425 W/m 9,7 km/h (2 Bft) 97,87 %
25.09.2022 16:42 17,6 C 18,3 C 12,8 C 65 % 1013,5 hPa 0,0 l/m 2 min 0 min 445 W/m 12,9 km/h (3 Bft) 100,00 %
25.09.2022 16:44 17,7 C 18,9 C 12,8 C 65 % 1013,5 hPa 0,0 l/m 2 min 0 min 435 W/m 12,9 km/h (3 Bft) 100,00 %
25.09.2022 16:46 17,7 C 18,9 C 12,8 C 65 % 1013,4 hPa 0,0 l/m 2 min 0 min 401 W/m 16,1 km/h (3 Bft) 100,00 %
25.09.2022 16:48 17,7 C 18,9 C 12,8 C 65 % 1013,5 hPa 0,0 l/m 2 min 0 min 434 W/m 9,7 km/h (2 Bft) 100,00 %
25.09.2022 16:50 17,7 C 18,9 C 12,8 C 65 % 1013,5 hPa 0,0 l/m 2 min 0 min 424 W/m 19,3 km/h (3 Bft) 95,65 %
25.09.2022 16:52 17,7 C 18,9 C 12,2 C 65 % 1013,5 hPa 0,0 l/m 2 min 0 min 413 W/m 19,3 km/h (3 Bft) 97,87 %
25.09.2022 16:54 17,7 C 18,3 C 12,2 C 65 % 1013,4 hPa 0,0 l/m 2 min 0 min 375 W/m 12,9 km/h (3 Bft) 97,87 %
25.09.2022 16:56 17,7 C 17,8 C 12,2 C 65 % 1013,4 hPa 0,0 l/m 0 min 0 min 101 W/m 9,7 km/h (2 Bft) 97,87 %
25.09.2022 16:58 17,6 C 17,2 C 12,2 C 65 % 1013,4 hPa 0,0 l/m 0 min 0 min 97 W/m 12,9 km/h (3 Bft) 94,44 %
25.09.2022 17:00 17,6 C 17,2 C 12,2 C 65 % 1013,3 hPa 0,0 l/m 0 min 0 min 83 W/m 12,9 km/h (3 Bft) 97,83 %
25.09.2022 17:02 17,4 C 16,7 C 11,7 C 65 % 1013,3 hPa 0,0 l/m 0 min 0 min 72 W/m 9,7 km/h (2 Bft) 95,74 %
25.09.2022 17:04 17,4 C 16,7 C 11,7 C 65 % 1013,3 hPa 0,0 l/m 0 min 0 min 102 W/m 6,4 km/h (2 Bft) 95,74 %
25.09.2022 17:06 17,3 C 16,7 C 11,7 C 66 % 1013,3 hPa 0,0 l/m 0 min 0 min 63 W/m 9,7 km/h (2 Bft) 91,53 %
25.09.2022 17:08 17,3 C 16,7 C 11,7 C 66 % 1013,3 hPa 0,0 l/m 0 min 0 min 69 W/m 9,7 km/h (2 Bft) 97,14 %
25.09.2022 17:10 17,2 C 16,7 C 11,7 C 67 % 1013,3 hPa 0,0 l/m 0 min 0 min 69 W/m 3,2 km/h (1 Bft) 93,62 %
25.09.2022 17:12 17,1 C 16,1 C 11,7 C 67 % 1013,4 hPa 0,0 l/m 0 min 0 min 70 W/m 9,7 km/h (2 Bft) 95,92 %
25.09.2022 17:14 17,1 C 16,1 C 11,7 C 66 % 1013,4 hPa 0,0 l/m 0 min 0 min 70 W/m 9,7 km/h (2 Bft) 95,74 %
25.09.2022 17:16 17,0 C 16,1 C 11,7 C 67 % 1013,4 hPa 0,0 l/m 0 min 0 min 66 W/m 3,2 km/h (1 Bft) 95,74 %
25.09.2022 17:18 16,9 C 16,1 C 11,7 C 67 % 1013,4 hPa 0,0 l/m 0 min 0 min 60 W/m 9,7 km/h (2 Bft) 95,74 %
25.09.2022 17:20 16,9 C 16,1 C 11,7 C 67 % 1013,4 hPa 0,0 l/m 0 min 0 min 55 W/m 9,7 km/h (2 Bft) 93,62 %
25.09.2022 17:22 16,8 C 16,1 C 11,7 C 67 % 1013,4 hPa 0,0 l/m 0 min 0 min 51 W/m 9,7 km/h (2 Bft) 95,65 %
25.09.2022 17:24 16,8 C 16,1 C 11,1 C 67 % 1013,4 hPa 0,0 l/m 0 min 0 min 54 W/m 9,7 km/h (2 Bft) 95,92 %
25.09.2022 17:26 16,7 C 16,1 C 11,1 C 67 % 1013,3 hPa 0,0 l/m 0 min 0 min 62 W/m 12,9 km/h (3 Bft) 94,29 %
25.09.2022 17:28 16,7 C 16,1 C 11,1 C 67 % 1013,4 hPa 0,0 l/m 0 min 0 min 68 W/m 9,7 km/h (2 Bft) 95,74 %
25.09.2022 17:30 16,6 C 16,1 C 11,1 C 68 % 1013,3 hPa 0,0 l/m 0 min 0 min 71 W/m 6,4 km/h (2 Bft) 91,49 %
25.09.2022 17:32 16,6 C 16,1 C 11,7 C 68 % 1013,3 hPa 0,0 l/m 0 min 0 min 74 W/m 9,7 km/h (2 Bft) 97,87 %
25.09.2022 17:34 16,6 C 16,1 C 11,7 C 68 % 1013,3 hPa 0,0 l/m 0 min 0 min 71 W/m 6,4 km/h (2 Bft) 98,18 %
25.09.2022 17:36 16,6 C 15,6 C 11,7 C 68 % 1013,2 hPa 0,0 l/m 0 min 0 min 66 W/m 9,7 km/h (2 Bft) 97,83 %
25.09.2022 17:38 16,5 C 15,6 C 11,7 C 68 % 1013,3 hPa 0,0 l/m 0 min 0 min 60 W/m 16,1 km/h (3 Bft) 95,74 %
25.09.2022 17:40 16,5 C 15,6 C 11,7 C 69 % 1013,2 hPa 0,0 l/m 0 min 0 min 56 W/m 12,9 km/h (3 Bft) 97,87 %
25.09.2022 17:42 16,4 C 15,6 C 11,1 C 69 % 1013,2 hPa 0,0 l/m 0 min 0 min 57 W/m 22,5 km/h (4 Bft) 97,87 %
25.09.2022 17:44 16,4 C 16,1 C 11,1 C 69 % 1013,2 hPa 0,0 l/m 0 min 0 min 70 W/m 16,1 km/h (3 Bft) 97,87 %
25.09.2022 17:46 16,3 C 16,7 C 11,1 C 69 % 1013,2 hPa 0,0 l/m 2 min 0 min 180 W/m 9,7 km/h (2 Bft) 100,00 %
25.09.2022 17:48 16,3 C 16,7 C 11,1 C 70 % 1013,1 hPa 0,0 l/m 2 min 0 min 164 W/m 3,2 km/h (1 Bft) 97,87 %
25.09.2022 17:50 16,3 C 16,1 C 11,1 C 69 % 1013,1 hPa 0,0 l/m 0 min 0 min 54 W/m 12,9 km/h (3 Bft) 97,87 %
25.09.2022 17:52 16,3 C 16,1 C 11,1 C 69 % 1013,2 hPa 0,0 l/m 0 min 0 min 51 W/m 6,4 km/h (2 Bft) 97,87 %
25.09.2022 17:54 16,3 C 15,6 C 11,1 C 69 % 1013,1 hPa 0,0 l/m 0 min 0 min 53 W/m 6,4 km/h (2 Bft) 95,74 %
25.09.2022 17:56 16,2 C 15,6 C 11,1 C 69 % 1013,1 hPa 0,0 l/m 0 min 0 min 56 W/m 12,9 km/h (3 Bft) 97,87 %
25.09.2022 17:58 16,2 C 15,6 C 11,1 C 70 % 1013,2 hPa 0,0 l/m 0 min 0 min 64 W/m 6,4 km/h (2 Bft) 100,00 %
25.09.2022 18:00 16,1 C 15,6 C 11,1 C 70 % 1013,1 hPa 0,0 l/m 0 min 0 min 74 W/m 6,4 km/h (2 Bft) 100,00 %
25.09.2022 18:02 16,1 C 15,6 C 11,1 C 69 % 1013,1 hPa 0,0 l/m 0 min 0 min 90 W/m 12,9 km/h (3 Bft) 100,00 %
25.09.2022 18:04 16,1 C 15,6 C 11,1 C 68 % 1013,1 hPa 0,0 l/m 0 min 0 min 100 W/m 12,9 km/h (3 Bft) 100,00 %
25.09.2022 18:08 16,1 C 16,1 C 11,7 C 67 % 1013,1 hPa 0,0 l/m 4 min 0 min 117 W/m 12,9 km/h (3 Bft) 100,00 %
25.09.2022 18:10 16,1 C 16,1 C 11,7 C 66 % 1013,1 hPa 0,0 l/m 2 min 0 min 110 W/m 9,7 km/h (2 Bft) 97,83 %
25.09.2022 18:12 16,1 C 16,1 C 11,7 C 66 % 1013,1 hPa 0,0 l/m 2 min 0 min 181 W/m 9,7 km/h (2 Bft) 100,00 %
25.09.2022 18:14 16,1 C 16,7 C 11,7 C 66 % 1013,1 hPa 0,0 l/m 2 min 0 min 172 W/m 9,7 km/h (2 Bft) 97,87 %
25.09.2022 18:16 16,2 C 16,7 C 11,7 C 67 % 1013,1 hPa 0,0 l/m 2 min 0 min 177 W/m 6,4 km/h (2 Bft) 100,00 %
25.09.2022 18:18 16,2 C 16,7 C 11,7 C 68 % 1013,1 hPa 0,0 l/m 2 min 0 min 174 W/m 6,4 km/h (2 Bft) 100,00 %
25.09.2022 18:20 16,3 C 16,7 C 11,7 C 69 % 1013,1 hPa 0,0 l/m 2 min 0 min 167 W/m 9,7 km/h (2 Bft) 100,00 %
25.09.2022 18:22 16,3 C 16,7 C 11,7 C 68 % 1013,1 hPa 0,0 l/m 2 min 0 min 158 W/m 6,4 km/h (2 Bft) 100,00 %
25.09.2022 18:24 16,4 C 17,2 C 11,7 C 68 % 1013,0 hPa 0,0 l/m 2 min 0 min 147 W/m 12,9 km/h (3 Bft) 97,87 %
25.09.2022 18:26 16,4 C 16,7 C 11,7 C 67 % 1013,1 hPa 0,0 l/m 2 min 0 min 139 W/m 12,9 km/h (3 Bft) 100,00 %
25.09.2022 18:28 16,4 C 16,7 C 11,7 C 66 % 1013,1 hPa 0,0 l/m 2 min 0 min 130 W/m 19,3 km/h (3 Bft) 100,00 %
25.09.2022 18:30 16,5 C 16,7 C 11,7 C 66 % 1013,1 hPa 0,0 l/m 2 min 0 min 122 W/m 6,4 km/h (2 Bft) 95,83 %
25.09.2022 18:32 16,5 C 16,1 C 11,7 C 66 % 1013,0 hPa 0,0 l/m 2 min 0 min 104 W/m 9,7 km/h (2 Bft) 100,00 %
25.09.2022 18:34 16,5 C 16,1 C 11,7 C 66 % 1013,1 hPa 0,0 l/m 2 min 0 min 73 W/m 9,7 km/h (2 Bft) 100,00 %
25.09.2022 18:36 16,5 C 16,1 C 11,7 C 67 % 1013,1 hPa 0,0 l/m 2 min 0 min 66 W/m 6,4 km/h (2 Bft) 98,08 %
25.09.2022 18:38 16,6 C 16,1 C 11,7 C 67 % 1013,1 hPa 0,0 l/m 2 min 0 min 65 W/m 16,1 km/h (3 Bft) 97,92 %
25.09.2022 18:40 16,5 C 16,1 C 11,7 C 66 % 1013,1 hPa 0,0 l/m 2 min 0 min 64 W/m 16,1 km/h (3 Bft) 95,74 %
25.09.2022 18:42 16,5 C 15,6 C 11,7 C 66 % 1013,1 hPa 0,0 l/m 2 min 0 min 60 W/m 6,4 km/h (2 Bft) 100,00 %
25.09.2022 18:44 16,4 C 15,6 C 11,1 C 66 % 1013,1 hPa 0,0 l/m 2 min 0 min 55 W/m 9,7 km/h (2 Bft) 100,00 %
25.09.2022 18:46 16,4 C 15,6 C 11,1 C 66 % 1013,1 hPa 0,0 l/m 2 min 0 min 47 W/m 16,1 km/h (3 Bft) 100,00 %
25.09.2022 18:48 16,4 C 15,6 C 11,1 C 66 % 1013,1 hPa 0,0 l/m 0 min 0 min 43 W/m 12,9 km/h (3 Bft) 95,74 %
25.09.2022 18:50 16,3 C 15,6 C 11,1 C 66 % 1013,2 hPa 0,0 l/m 0 min 0 min 40 W/m 12,9 km/h (3 Bft) 95,83 %
25.09.2022 18:52 16,3 C 15,6 C 11,1 C 66 % 1013,1 hPa 0,0 l/m 0 min 0 min 37 W/m 6,4 km/h (2 Bft) 97,87 %
25.09.2022 18:54 16,2 C 15,6 C 11,1 C 67 % 1013,2 hPa 0,0 l/m 0 min 0 min 34 W/m 6,4 km/h (2 Bft) 95,74 %
25.09.2022 18:56 16,2 C 15,0 C 11,1 C 68 % 1013,2 hPa 0,0 l/m 0 min 0 min 32 W/m 9,7 km/h (2 Bft) 97,87 %
25.09.2022 18:58 16,2 C 15,0 C 11,1 C 68 % 1013,2 hPa 0,0 l/m 0 min 0 min 30 W/m 3,2 km/h (1 Bft) 97,83 %
25.09.2022 19:00 16,1 C 15,0 C 11,1 C 68 % 1013,1 hPa 0,0 l/m 0 min 0 min 26 W/m 9,7 km/h (2 Bft) 97,87 %
25.09.2022 19:02 16,1 C 15,0 C 11,1 C 69 % 1013,1 hPa 0,0 l/m 0 min 0 min 22 W/m 6,4 km/h (2 Bft) 95,83 %
25.09.2022 19:04 16,1 C 15,0 C 11,1 C 69 % 1013,1 hPa 0,0 l/m 0 min 0 min 18 W/m 9,7 km/h (2 Bft) 95,74 %
25.09.2022 19:06 16,0 C 15,0 C 11,1 C 69 % 1013,2 hPa 0,0 l/m 0 min 0 min 14 W/m 3,2 km/h (1 Bft) 95,74 %
25.09.2022 19:08 15,9 C 14,4 C 10,6 C 70 % 1013,2 hPa 0,0 l/m 0 min 0 min 11 W/m 3,2 km/h (1 Bft) 93,62 %
25.09.2022 19:10 15,9 C 14,4 C 10,6 C 70 % 1013,2 hPa 0,0 l/m 0 min 0 min 9 W/m 3,2 km/h (1 Bft) 93,48 %
25.09.2022 19:12 15,8 C 14,4 C 10,6 C 71 % 1013,1 hPa 0,0 l/m 0 min 0 min 7 W/m 3,2 km/h (1 Bft) 93,62 %
25.09.2022 19:14 15,7 C 14,4 C 10,6 C 71 % 1013,2 hPa 0,0 l/m 0 min 0 min 5 W/m 3,2 km/h (1 Bft) 95,74 %
25.09.2022 19:16 15,7 C 14,4 C 10,6 C 72 % 1013,1 hPa 0,0 l/m 0 min 0 min 5 W/m 0,0 km/h (0 Bft) 95,74 %
25.09.2022 19:18 15,6 C 14,4 C 10,0 C 72 % 1013,1 hPa 0,0 l/m 0 min 0 min 5 W/m 3,2 km/h (1 Bft) 97,87 %
25.09.2022 19:20 15,6 C 13,9 C 10,0 C 72 % 1013,2 hPa 0,0 l/m 0 min 0 min 0 W/m 0,0 km/h (0 Bft) 95,74 %
25.09.2022 19:22 15,5 C 13,9 C 10,0 C 73 % 1013,2 hPa 0,0 l/m 0 min 0 min 0 W/m 3,2 km/h (1 Bft) 95,65 %
25.09.2022 19:24 15,4 C 13,9 C 10,0 C 73 % 1013,2 hPa 0,0 l/m 0 min 0 min 0 W/m 3,2 km/h (1 Bft) 95,74 %
25.09.2022 19:26 15,4 C 13,9 C 10,0 C 73 % 1013,2 hPa 0,0 l/m 0 min 0 min 0 W/m 6,4 km/h (2 Bft) 95,74 %
25.09.2022 19:28 15,3 C 13,9 C 9,4 C 73 % 1013,1 hPa 0,0 l/m 0 min 0 min 0 W/m 6,4 km/h (2 Bft) 95,74 %
25.09.2022 19:30 15,3 C 13,9 C 9,4 C 73 % 1013,2 hPa 0,0 l/m 0 min 0 min 0 W/m 6,4 km/h (2 Bft) 93,75 %
25.09.2022 19:32 15,2 C 13,3 C 9,4 C 73 % 1013,2 hPa 0,0 l/m 0 min 0 min 0 W/m 3,2 km/h (1 Bft) 95,74 %
25.09.2022 19:34 15,2 C 13,3 C 9,4 C 73 % 1013,2 hPa 0,0 l/m 0 min 0 min 0 W/m 3,2 km/h (1 Bft) 97,83 %
25.09.2022 19:36 15,1 C 13,3 C 9,4 C 73 % 1013,2 hPa 0,0 l/m 0 min 0 min 0 W/m 3,2 km/h (1 Bft) 100,00 %
25.09.2022 19:38 15,1 C 13,3 C 9,4 C 73 % 1013,1 hPa 0,0 l/m 0 min 0 min 0 W/m 3,2 km/h (1 Bft) 100,00 %
25.09.2022 19:40 14,9 C 13,3 C 9,4 C 74 % 1013,2 hPa 0,0 l/m 0 min 0 min 0 W/m 0,0 km/h (0 Bft) 100,00 %
25.09.2022 19:42 14,9 C 13,3 C 9,4 C 74 % 1013,1 hPa 0,0 l/m 0 min 0 min 0 W/m 3,2 km/h (1 Bft) 100,00 %
25.09.2022 19:44 14,8 C 13,3 C 9,4 C 74 % 1013,1 hPa 0,0 l/m 0 min 0 min 0 W/m 0,0 km/h (0 Bft) 97,87 %
25.09.2022 19:46 14,7 C 12,8 C 8,9 C 74 % 1013,1 hPa 0,0 l/m 0 min 0 min 0 W/m 3,2 km/h (1 Bft) 95,74 %
25.09.2022 19:48 14,7 C 12,8 C 8,9 C 74 % 1013,1 hPa 0,0 l/m 0 min 0 min 0 W/m 6,4 km/h (2 Bft) 97,87 %
25.09.2022 19:50 14,6 C 12,8 C 8,9 C 74 % 1013,1 hPa 0,0 l/m 0 min 0 min 0 W/m 6,4 km/h (2 Bft) 97,87 %
25.09.2022 19:52 14,6 C 12,8 C 8,9 C 74 % 1013,2 hPa 0,0 l/m 0 min 0 min 0 W/m 6,4 km/h (2 Bft) 95,74 %
25.09.2022 19:54 14,5 C 12,8 C 8,9 C 74 % 1013,2 hPa 0,0 l/m 0 min 0 min 0 W/m 6,4 km/h (2 Bft) 97,87 %
25.09.2022 19:56 14,4 C 12,8 C 8,9 C 75 % 1013,1 hPa 0,0 l/m 0 min 0 min 0 W/m 3,2 km/h (1 Bft) 97,83 %
25.09.2022 19:58 14,4 C 12,8 C 8,9 C 75 % 1013,2 hPa 0,0 l/m 0 min 0 min 0 W/m 3,2 km/h (1 Bft) 97,87 %
25.09.2022 20:00 14,3 C 12,8 C 8,9 C 75 % 1013,2 hPa 0,0 l/m 0 min 0 min 0 W/m 3,2 km/h (1 Bft) 97,87 %
25.09.2022 20:02 14,3 C 12,8 C 8,9 C 75 % 1013,2 hPa 0,0 l/m 0 min 0 min 0 W/m 6,4 km/h (2 Bft) 95,74 %
25.09.2022 20:04 14,3 C 12,8 C 9,4 C 75 % 1013,2 hPa 0,0 l/m 0 min 0 min 0 W/m 3,2 km/h (1 Bft) 97,87 %
25.09.2022 20:06 14,3 C 12,8 C 8,9 C 76 % 1013,3 hPa 0,0 l/m 0 min 0 min 0 W/m 6,4 km/h (2 Bft) 97,87 %
25.09.2022 20:08 14,3 C 12,8 C 9,4 C 75 % 1013,3 hPa 0,0 l/m 0 min 0 min 0 W/m 6,4 km/h (2 Bft) 97,83 %
25.09.2022 20:10 14,3 C 12,8 C 9,4 C 76 % 1013,2 hPa 0,0 l/m 0 min 0 min 0 W/m 3,2 km/h (1 Bft) 97,87 %
25.09.2022 20:12 14,1 C 12,8 C 9,4 C 76 % 1013,2 hPa 0,0 l/m 0 min 0 min 0 W/m 6,4 km/h (2 Bft) 97,87 %
25.09.2022 20:14 14,1 C 12,8 C 9,4 C 76 % 1013,2 hPa 0,0 l/m 0 min 0 min 0 W/m 6,4 km/h (2 Bft) 97,92 %
25.09.2022 20:16 14,1 C 12,8 C 9,4 C 76 % 1013,1 hPa 0,0 l/m 0 min 0 min 0 W/m 6,4 km/h (2 Bft) 97,87 %
25.09.2022 20:18 14,1 C 12,8 C 9,4 C 76 % 1013,2 hPa 0,0 l/m 0 min 0 min 0 W/m 6,4 km/h (2 Bft) 97,87 %
25.09.2022 20:20 14,0 C 12,8 C 9,4 C 76 % 1013,1 hPa 0,0 l/m 0 min 0 min 0 W/m 3,2 km/h (1 Bft) 95,45 %
25.09.2022 20:22 14,0 C 13,3 C 9,4 C 77 % 1013,2 hPa 0,0 l/m 0 min 0 min 0 W/m 9,7 km/h (2 Bft) 97,87 %
25.09.2022 20:24 13,9 C 12,8 C 9,4 C 77 % 1013,1 hPa 0,0 l/m 0 min 0 min 0 W/m 12,9 km/h (3 Bft) 97,87 %
25.09.2022 20:26 13,9 C 13,3 C 9,4 C 77 % 1013,1 hPa 0,0 l/m 0 min 0 min 0 W/m 12,9 km/h (3 Bft) 95,74 %
25.09.2022 20:28 13,9 C 13,3 C 9,4 C 77 % 1013,2 hPa 0,0 l/m 0 min 0 min 0 W/m 9,7 km/h (2 Bft) 97,87 %
25.09.2022 20:30 13,9 C 13,3 C 9,4 C 77 % 1013,1 hPa 0,0 l/m 0 min 0 min 0 W/m 9,7 km/h (2 Bft) 95,74 %
25.09.2022 20:32 13,9 C 13,3 C 9,4 C 77 % 1013,1 hPa 0,0 l/m 0 min 0 min 0 W/m 3,2 km/h (1 Bft) 97,87 %
25.09.2022 20:34 13,9 C 13,3 C 9,4 C 77 % 1013,1 hPa 0,0 l/m 0 min 0 min 0 W/m 9,7 km/h (2 Bft) 100,00 %
25.09.2022 20:36 13,9 C 13,3 C 9,4 C 77 % 1013,1 hPa 0,0 l/m 0 min 0 min 0 W/m 3,2 km/h (1 Bft) 100,00 %
25.09.2022 20:38 13,9 C 13,3 C 9,4 C 77 % 1013,1 hPa 0,0 l/m 0 min 0 min 0 W/m 3,2 km/h (1 Bft) 100,00 %
25.09.2022 20:40 13,9 C 12,8 C 9,4 C 77 % 1013,1 hPa 0,0 l/m 0 min 0 min 0 W/m 3,2 km/h (1 Bft) 100,00 %
25.09.2022 20:42 13,9 C 12,8 C 9,4 C 77 % 1013,1 hPa 0,0 l/m 0 min 0 min 0 W/m 3,2 km/h (1 Bft) 100,00 %
25.09.2022 20:44 13,8 C 12,8 C 9,4 C 77 % 1013,0 hPa 0,0 l/m 0 min 0 min 0 W/m 0,0 km/h (0 Bft) 100,00 %
25.09.2022 20:46 13,8 C 12,8 C 9,4 C 78 % 1013,0 hPa 0,0 l/m 0 min 0 min 0 W/m 0,0 km/h (0 Bft) 100,00 %
25.09.2022 20:48 13,9 C 12,8 C 9,4 C 78 % 1013,0 hPa 0,0 l/m 0 min 0 min 0 W/m 0,0 km/h (0 Bft) 100,00 %
25.09.2022 20:50 13,9 C 12,8 C 8,9 C 78 % 1013,0 hPa 0,0 l/m 0 min 0 min 0 W/m 0,0 km/h (0 Bft) 97,87 %
25.09.2022 20:52 13,8 C 12,8 C 8,9 C 78 % 1013,0 hPa 0,0 l/m 0 min 0 min 0 W/m 6,4 km/h (2 Bft) 97,87 %
25.09.2022 20:54 13,8 C 12,8 C 8,9 C 78 % 1013,0 hPa 0,0 l/m 0 min 0 min 0 W/m 3,2 km/h (1 Bft) 97,87 %
25.09.2022 20:56 13,8 C 12,8 C 8,9 C 78 % 1013,0 hPa 0,0 l/m 0 min 0 min 0 W/m 0,0 km/h (0 Bft) 97,83 %
25.09.2022 20:58 13,8 C 12,8 C 8,9 C 78 % 1013,0 hPa 0,0 l/m 0 min 0 min 0 W/m 0,0 km/h (0 Bft) 97,87 %
25.09.2022 21:00 13,8 C 12,2 C 8,9 C 78 % 1013,0 hPa 0,0 l/m 0 min 0 min 0 W/m 0,0 km/h (0 Bft) 97,87 %
25.09.2022 21:02 13,8 C 12,2 C 8,9 C 79 % 1012,9 hPa 0,0 l/m 0 min 0 min 0 W/m 0,0 km/h (0 Bft) 97,87 %
25.09.2022 21:04 13,7 C 12,2 C 8,9 C 79 % 1012,9 hPa 0,0 l/m 0 min 0 min 0 W/m 0,0 km/h (0 Bft) 97,87 %
25.09.2022 21:06 13,7 C 12,2 C 8,9 C 79 % 1012,9 hPa 0,0 l/m 0 min 0 min 0 W/m 0,0 km/h (0 Bft) 95,74 %
25.09.2022 21:08 13,6 C 12,2 C 8,9 C 79 % 1012,9 hPa 0,0 l/m 0 min 0 min 0 W/m 0,0 km/h (0 Bft) 95,65 %
25.09.2022 21:10 13,6 C 12,2 C 8,3 C 80 % 1013,0 hPa 0,0 l/m 0 min 0 min 0 W/m 0,0 km/h (0 Bft) 93,62 %
25.09.2022 21:12 13,5 C 12,2 C 8,3 C 80 % 1013,0 hPa 0,0 l/m 0 min 0 min 0 W/m 0,0 km/h (0 Bft) 95,74 %
25.09.2022 21:14 13,5 C 11,7 C 8,3 C 80 % 1012,9 hPa 0,0 l/m 0 min 0 min 0 W/m 0,0 km/h (0 Bft) 97,87 %
25.09.2022 21:16 13,4 C 11,7 C 8,3 C 80 % 1012,9 hPa 0,0 l/m 0 min 0 min 0 W/m 0,0 km/h (0 Bft) 95,74 %
25.09.2022 21:18 13,3 C 11,7 C 8,3 C 81 % 1012,9 hPa 0,0 l/m 0 min 0 min 0 W/m 0,0 km/h (0 Bft) 95,74 %
25.09.2022 21:20 13,3 C 11,7 C 8,3 C 81 % 1012,9 hPa 0,0 l/m 0 min 0 min 0 W/m 0,0 km/h (0 Bft) 97,83 %
25.09.2022 21:22 13,2 C 11,7 C 7,8 C 81 % 1012,9 hPa 0,0 l/m 0 min 0 min 0 W/m 0,0 km/h (0 Bft) 97,87 %
25.09.2022 21:24 13,2 C 11,7 C 7,8 C 82 % 1012,9 hPa 0,0 l/m 0 min 0 min 0 W/m 0,0 km/h (0 Bft) 97,87 %
25.09.2022 21:26 13,1 C 11,7 C 7,8 C 82 % 1012,9 hPa 0,0 l/m 0 min 0 min 0 W/m 0,0 km/h (0 Bft) 95,74 %
25.09.2022 21:28 13,1 C 11,1 C 7,8 C 82 % 1012,9 hPa 0,0 l/m 0 min 0 min 0 W/m 0,0 km/h (0 Bft) 97,87 %
25.09.2022 21:30 13,0 C 11,1 C 7,8 C 82 % 1012,9 hPa 0,0 l/m 0 min 0 min 0 W/m 0,0 km/h (0 Bft) 97,83 %
25.09.2022 21:32 12,9 C 11,1 C 7,8 C 82 % 1013,0 hPa 0,0 l/m 0 min 0 min 0 W/m 0,0 km/h (0 Bft) 97,92 %
25.09.2022 21:34 12,9 C 11,1 C 7,2 C 83 % 1012,9 hPa 0,0 l/m 0 min 0 min 0 W/m 0,0 km/h (0 Bft) 97,87 %
25.09.2022 21:36 12,8 C 11,1 C 7,2 C 83 % 1012,8 hPa 0,0 l/m 0 min 0 min 0 W/m 0,0 km/h (0 Bft) 97,87 %
25.09.2022 21:38 12,8 C 11,1 C 7,2 C 83 % 1012,8 hPa 0,0 l/m 0 min 0 min 0 W/m 0,0 km/h (0 Bft) 97,87 %
25.09.2022 21:40 12,7 C 11,1 C 7,2 C 83 % 1012,8 hPa 0,0 l/m 0 min 0 min 0 W/m 0,0 km/h (0 Bft) 95,74 %
25.09.2022 21:42 12,6 C 10,6 C 7,2 C 83 % 1012,8 hPa 0,0 l/m 0 min 0 min 0 W/m 0,0 km/h (0 Bft) 97,83 %
25.09.2022 21:44 12,6 C 10,6 C 7,2 C 83 % 1012,8 hPa 0,0 l/m 0 min 0 min 0 W/m 0,0 km/h (0 Bft) 97,87 %
25.09.2022 21:46 12,5 C 10,6 C 7,2 C 84 % 1012,7 hPa 0,0 l/m 0 min 0 min 0 W/m 0,0 km/h (0 Bft) 97,87 %
25.09.2022 21:48 12,4 C 10,6 C 7,2 C 84 % 1012,7 hPa 0,0 l/m 0 min 0 min 0 W/m 0,0 km/h (0 Bft) 97,87 %
25.09.2022 21:50 12,4 C 10,6 C 7,2 C 84 % 1012,7 hPa 0,0 l/m 0 min 0 min 0 W/m 0,0 km/h (0 Bft) 97,87 %
25.09.2022 21:52 12,3 C 10,6 C 7,2 C 84 % 1012,7 hPa 0,0 l/m 0 min 0 min 0 W/m 0,0 km/h (0 Bft) 97,87 %
25.09.2022 21:54 12,3 C 10,6 C 7,2 C 84 % 1012,7 hPa 0,0 l/m 0 min 0 min 0 W/m 0,0 km/h (0 Bft) 97,87 %
25.09.2022 21:56 12,2 C 10,6 C 7,2 C 84 % 1012,7 hPa 0,0 l/m 0 min 0 min 0 W/m 3,2 km/h (1 Bft) 95,65 %
25.09.2022 21:58 12,1 C 10,6 C 7,2 C 84 % 1012,7 hPa 0,0 l/m 0 min 0 min 0 W/m 0,0 km/h (0 Bft) 100,00 %
25.09.2022 22:00 12,1 C 10,6 C 7,2 C 85 % 1012,7 hPa 0,0 l/m 0 min 0 min 0 W/m 0,0 km/h (0 Bft) 100,00 %
25.09.2022 22:02 12,0 C 10,6 C 7,2 C 85 % 1012,6 hPa 0,0 l/m 0 min 0 min 0 W/m 0,0 km/h (0 Bft) 100,00 %
25.09.2022 22:04 11,9 C 10,6 C 6,7 C 85 % 1012,6 hPa 0,0 l/m 0 min 0 min 0 W/m 0,0 km/h (0 Bft) 100,00 %
25.09.2022 22:06 11,9 C 10,6 C 7,2 C 85 % 1012,6 hPa 0,0 l/m 0 min 0 min 0 W/m 0,0 km/h (0 Bft) 100,00 %
25.09.2022 22:08 11,8 C 10,6 C 7,2 C 85 % 1012,7 hPa 0,0 l/m 0 min 0 min 0 W/m 0,0 km/h (0 Bft) 97,22 %
25.09.2022 22:10 11,8 C 10,6 C 6,7 C 85 % 1012,7 hPa 0,0 l/m 0 min 0 min 0 W/m 0,0 km/h (0 Bft) 100,00 %
25.09.2022 22:12 11,8 C 10,0 C 6,7 C 85 % 1012,6 hPa 0,0 l/m 0 min 0 min 0 W/m 0,0 km/h (0 Bft) 95,74 %
25.09.2022 22:14 11,7 C 10,0 C 6,7 C 86 % 1012,6 hPa 0,0 l/m 0 min 0 min 0 W/m 0,0 km/h (0 Bft) 100,00 %
25.09.2022 22:16 11,7 C 10,0 C 6,7 C 86 % 1012,6 hPa 0,0 l/m 0 min 0 min 0 W/m 0,0 km/h (0 Bft) 100,00 %
25.09.2022 22:18 11,6 C 10,0 C 6,7 C 86 % 1012,5 hPa 0,0 l/m 0 min 0 min 0 W/m 0,0 km/h (0 Bft) 100,00 %
25.09.2022 22:20 11,6 C 10,0 C 6,7 C 86 % 1012,6 hPa 0,0 l/m 0 min 0 min 0 W/m 0,0 km/h (0 Bft) 100,00 %
25.09.2022 22:22 11,6 C 10,0 C 6,7 C 86 % 1012,6 hPa 0,0 l/m 0 min 0 min 0 W/m 0,0 km/h (0 Bft) 97,83 %
25.09.2022 22:24 11,5 C 10,0 C 6,7 C 86 % 1012,6 hPa 0,0 l/m 0 min 0 min 0 W/m 0,0 km/h (0 Bft) 100,00 %
25.09.2022 22:26 11,4 C 10,0 C 6,7 C 86 % 1012,5 hPa 0,0 l/m 0 min 0 min 0 W/m 0,0 km/h (0 Bft) 100,00 %
25.09.2022 22:28 11,4 C 10,0 C 6,7 C 87 % 1012,5 hPa 0,0 l/m 0 min 0 min 0 W/m 0,0 km/h (0 Bft) 97,87 %
25.09.2022 22:30 11,4 C 10,0 C 6,7 C 87 % 1012,5 hPa 0,0 l/m 0 min 0 min 0 W/m 0,0 km/h (0 Bft) 97,87 %
25.09.2022 22:32 11,3 C 10,0 C 6,7 C 87 % 1012,5 hPa 0,0 l/m 0 min 0 min 0 W/m 0,0 km/h (0 Bft) 97,83 %
25.09.2022 22:34 11,3 C 10,0 C 6,7 C 87 % 1012,5 hPa 0,0 l/m 0 min 0 min 0 W/m 0,0 km/h (0 Bft) 97,87 %
25.09.2022 22:36 11,3 C 10,0 C 6,7 C 87 % 1012,5 hPa 0,0 l/m 0 min 0 min 0 W/m 0,0 km/h (0 Bft) 97,87 %
25.09.2022 22:38 11,2 C 10,0 C 6,7 C 87 % 1012,5 hPa 0,0 l/m 0 min 0 min 0 W/m 0,0 km/h (0 Bft) 97,87 %
25.09.2022 22:40 11,2 C 10,0 C 6,7 C 88 % 1012,5 hPa 0,0 l/m 0 min 0 min 0 W/m 0,0 km/h (0 Bft) 95,74 %
25.09.2022 22:42 11,2 C 10,0 C 6,7 C 88 % 1012,5 hPa 0,0 l/m 0 min 0 min 0 W/m 0,0 km/h (0 Bft) 97,87 %
25.09.2022 22:44 11,2 C 10,0 C 6,7 C 88 % 1012,5 hPa 0,0 l/m 0 min 0 min 0 W/m 0,0 km/h (0 Bft) 97,87 %
25.09.2022 22:46 11,1 C 10,0 C 6,7 C 88 % 1012,5 hPa 0,0 l/m 0 min 0 min 0 W/m 0,0 km/h (0 Bft) 97,83 %
25.09.2022 22:48 11,1 C 10,0 C 6,7 C 88 % 1012,5 hPa 0,0 l/m 0 min 0 min 0 W/m 0,0 km/h (0 Bft) 95,74 %
25.09.2022 22:50 11,1 C 10,0 C 6,7 C 88 % 1012,5 hPa 0,0 l/m 0 min 0 min 0 W/m 0,0 km/h (0 Bft) 97,87 %
25.09.2022 22:52 11,1 C 10,0 C 6,7 C 88 % 1012,4 hPa 0,0 l/m 0 min 0 min 0 W/m 0,0 km/h (0 Bft) 97,87 %
25.09.2022 22:54 11,1 C 10,0 C 6,7 C 88 % 1012,4 hPa 0,0 l/m 0 min 0 min 0 W/m 0,0 km/h (0 Bft) 97,87 %
25.09.2022 22:56 11,0 C 10,0 C 6,7 C 88 % 1012,4 hPa 0,0 l/m 0 min 0 min 0 W/m 0,0 km/h (0 Bft) 97,87 %
25.09.2022 22:58 11,0 C 10,0 C 6,7 C 89 % 1012,4 hPa 0,0 l/m 0 min 0 min 0 W/m 0,0 km/h (0 Bft) 100,00 %
25.09.2022 23:00 11,0 C 10,0 C 6,7 C 89 % 1012,3 hPa 0,0 l/m 0 min 0 min 0 W/m 0,0 km/h (0 Bft) 100,00 %
25.09.2022 23:02 10,9 C 10,0 C 6,7 C 89 % 1012,3 hPa 0,0 l/m 0 min 0 min 0 W/m 0,0 km/h (0 Bft) 100,00 %
25.09.2022 23:04 10,9 C 9,4 C 6,1 C 89 % 1012,4 hPa 0,0 l/m 0 min 0 min 0 W/m 0,0 km/h (0 Bft) 100,00 %
25.09.2022 23:06 10,9 C 9,4 C 6,1 C 89 % 1012,3 hPa 0,0 l/m 0 min 0 min 0 W/m 0,0 km/h (0 Bft) 100,00 %
25.09.2022 23:08 10,9 C 9,4 C 6,1 C 89 % 1012,3 hPa 0,0 l/m 0 min 0 min 0 W/m 0,0 km/h (0 Bft) 98,18 %
25.09.2022 23:10 10,9 C 9,4 C 6,1 C 89 % 1012,3 hPa 0,0 l/m 0 min 0 min 0 W/m 0,0 km/h (0 Bft) 97,87 %
25.09.2022 23:12 10,8 C 9,4 C 6,1 C 89 % 1012,2 hPa 0,0 l/m 0 min 0 min 0 W/m 0,0 km/h (0 Bft) 97,87 %
25.09.2022 23:14 10,8 C 9,4 C 6,1 C 89 % 1012,2 hPa 0,0 l/m 0 min 0 min 0 W/m 0,0 km/h (0 Bft) 94,00 %
25.09.2022 23:16 10,8 C 9,4 C 6,1 C 89 % 1012,3 hPa 0,0 l/m 0 min 0 min 0 W/m 0,0 km/h (0 Bft) 95,74 %
25.09.2022 23:18 10,8 C 9,4 C 6,1 C 89 % 1012,2 hPa 0,0 l/m 0 min 0 min 0 W/m 0,0 km/h (0 Bft) 97,83 %
25.09.2022 23:20 10,7 C 9,4 C 6,1 C 89 % 1012,2 hPa 0,0 l/m 0 min 0 min 0 W/m 0,0 km/h (0 Bft) 97,87 %
25.09.2022 23:22 10,7 C 9,4 C 6,1 C 89 % 1012,2 hPa 0,0 l/m 0 min 0 min 0 W/m 0,0 km/h (0 Bft) 95,74 %
25.09.2022 23:24 10,7 C 9,4 C 6,1 C 90 % 1012,2 hPa 0,0 l/m 0 min 0 min 0 W/m 0,0 km/h (0 Bft) 95,74 %
25.09.2022 23:26 10,7 C 9,4 C 6,1 C 90 % 1012,1 hPa 0,0 l/m 0 min 0 min 0 W/m 0,0 km/h (0 Bft) 93,62 %
25.09.2022 23:28 10,7 C 9,4 C 6,1 C 90 % 1012,1 hPa 0,0 l/m 0 min 0 min 0 W/m 0,0 km/h (0 Bft) 95,74 %
25.09.2022 23:30 10,6 C 9,4 C 6,1 C 90 % 1012,1 hPa 0,0 l/m 0 min 0 min 0 W/m 0,0 km/h (0 Bft) 93,48 %
25.09.2022 23:32 10,6 C 9,4 C 6,1 C 90 % 1012,1 hPa 0,0 l/m 0 min 0 min 0 W/m 0,0 km/h (0 Bft) 95,74 %
25.09.2022 23:34 10,6 C 9,4 C 6,1 C 90 % 1012,1 hPa 0,0 l/m 0 min 0 min 0 W/m 0,0 km/h (0 Bft) 95,74 %
25.09.2022 23:36 10,6 C 9,4 C 6,1 C 90 % 1012,1 hPa 0,0 l/m 0 min 0 min 0 W/m 0,0 km/h (0 Bft) 95,74 %
25.09.2022 23:38 10,6 C 9,4 C 6,1 C 90 % 1012,1 hPa 0,0 l/m 0 min 0 min 0 W/m 0,0 km/h (0 Bft) 91,49 %
25.09.2022 23:40 10,5 C 9,4 C 6,1 C 90 % 1012,1 hPa 0,0 l/m 0 min 0 min 0 W/m 0,0 km/h (0 Bft) 93,62 %
25.09.2022 23:42 10,5 C 9,4 C 6,1 C 90 % 1012,0 hPa 0,0 l/m 0 min 0 min 0 W/m 0,0 km/h (0 Bft) 95,65 %
25.09.2022 23:44 10,5 C 9,4 C 6,1 C 90 % 1012,0 hPa 0,0 l/m 0 min 0 min 0 W/m 0,0 km/h (0 Bft) 95,74 %
25.09.2022 23:46 10,5 C 9,4 C 6,1 C 90 % 1012,0 hPa 0,0 l/m 0 min 0 min 0 W/m 0,0 km/h (0 Bft) 95,74 %
25.09.2022 23:48 10,4 C 9,4 C 6,1 C 91 % 1012,0 hPa 0,0 l/m 0 min 0 min 0 W/m 0,0 km/h (0 Bft) 93,62 %
25.09.2022 23:50 10,4 C 9,4 C 6,1 C 91 % 1012,0 hPa 0,0 l/m 0 min 0 min 0 W/m 0,0 km/h (0 Bft) 93,62 %
25.09.2022 23:52 10,4 C 9,4 C 6,1 C 91 % 1012,0 hPa 0,0 l/m 0 min 0 min 0 W/m 0,0 km/h (0 Bft) 95,65 %
25.09.2022 23:54 10,4 C 9,4 C 6,1 C 91 % 1011,9 hPa 0,0 l/m 0 min 0 min 0 W/m 0,0 km/h (0 Bft) 97,87 %
25.09.2022 23:56 10,4 C 9,4 C 6,1 C 91 % 1012,0 hPa 0,0 l/m 0 min 0 min 0 W/m 0,0 km/h (0 Bft) 97,87 %
25.09.2022 23:58 10,4 C 9,4 C 6,1 C 91 % 1011,9 hPa 0,0 l/m 0 min 0 min 0 W/m 0,0 km/h (0 Bft) 100,00 %
_ Min-Zeit 23:48 23:04 23:04 15:00 23:54 - - - - 07:14 00:10
Minimum _ 10,4 C 9,4 C 6,1 C 61 % 1011,9 hPa - - - - 0,0 km/h (0 Bft) 68,09 %
_ Max-Zeit 16:44 14:12 11:40 00:00 09:34 00:00 12:08 00:00 12:00 10:40 00:00
Maximum _ 17,7 C 24,4 C 16,7 C 96 % 1015,5 hPa 0,0 l/m 4 min 0 min 787 W/m 25,7 km/h
O (4 Bft)
100,00 %
Durchschnitt _ 13,7 C 13,4 C 9,6 C 83 % 1014,2 hPa #0,0 l/m #4:18 h #0 min. 220 W/m 8,1 km/h (2 Bft) 97,44 %
© 2022 W. Hausmann